M I D A S
Marine Information and Data Acquisition System
Tripno 898 of the Zeeleeuw from 2005-05-11 08:13:35 to 2005-05-11 10:35:43
Back to CruiseResearch ActivitiesStationsMapUnderway DataData graphs

EquipmentUnitsComment
TimeDGPSUTC
LatitudeDGPSDM.mWGS84
LongitudeDGPSDM.mWGS84
TemperatureSBE03/SBE38deg celciusITS90
ConductivitySBE21S/mITS90
SalinitySBE21 Practical Salinity Units
ChlorophylAChelsea fluorimeterg/lCalibrated in Aceton
Missing or incorrect values are displayed as -999
Sea surface data collected by the RV Zeeleeuw from 2005-05-11 08:13:02 to 2005-05-11 10:35:43
                                                                                    Next 1000 lines
Time Latitude Longitude Temperature Conductivity Salinity ChlorophylA
2005-05-11 08:13:16 51°13.594 2°56.102 19.1921 0.671057 4.470072 1.915503
2005-05-11 08:13:22 51°13.594 2°56.102 19.1913 0.671057 4.470072 1.915503
2005-05-11 08:13:27 51°13.594 2°56.102 19.1791 0.671057 4.470072 1.881794
2005-05-11 08:13:32 51°13.593 2°56.102 19.1844 0.671057 4.470072 1.915503
2005-05-11 08:16:52 51°13.594 2°56.102 19.1654 0.670848 4.469156 1.915503
2005-05-11 08:16:57 51°13.594 2°56.102 19.1649 0.670953 4.469901 1.881794
2005-05-11 08:17:02 51°13.594 2°56.101 19.1648 0.670848 4.469156 1.881794
2005-05-11 08:17:07 51°13.595 2°56.1 19.1683 0.670848 4.469156 1.881794
2005-05-11 08:17:12 51°13.595 2°56.1 19.189 0.670848 4.469156 1.915503
2005-05-11 08:17:36 51°13.593 2°56.101 19.1825 0.670848 4.46932 1.915503
2005-05-11 08:17:42 51°13.593 2°56.102 19.1837 0.670848 4.469238 1.915503
2005-05-11 08:17:47 51°13.592 2°56.102 19.1916 0.670848 4.46932 1.881794
2005-05-11 08:17:52 51°13.591 2°56.103 19.1984 0.670848 4.46932 1.915503
2005-05-11 08:17:56 51°13.59 2°56.104 19.2093 0.670848 4.46932 1.915503
2005-05-11 08:18:02 51°13.589 2°56.106 19.2085 0.670848 4.46932 1.881794
2005-05-11 08:18:07 51°13.587 2°56.108 19.2112 0.670848 4.46932 1.881794
2005-05-11 08:18:12 51°13.585 2°56.11 19.2155 0.670848 4.46932 1.881794
2005-05-11 08:18:16 51°13.584 2°56.111 19.2179 0.670848 4.469238 1.915503
2005-05-11 08:18:22 51°13.581 2°56.114 19.2308 0.670848 4.46932 1.915503
2005-05-11 08:18:27 51°13.58 2°56.117 19.233 0.670848 4.46932 1.915503
2005-05-11 08:18:32 51°13.577 2°56.12 19.224 0.670848 4.469402 1.881794
2005-05-11 08:18:37 51°13.573 2°56.124 19.2046 0.670848 4.46932 1.915503
2005-05-11 08:18:42 51°13.57 2°56.127 19.2002 0.670848 4.469402 1.881794
2005-05-11 08:18:47 51°13.567 2°56.131 19.1998 0.670848 4.46932 1.881794
2005-05-11 08:18:52 51°13.563 2°56.135 19.198 0.670848 4.46932 1.881794
2005-05-11 08:18:56 51°13.56 2°56.138 19.2004 0.670848 4.469402 1.881794
2005-05-11 08:19:02 51°13.554 2°56.143 19.1977 0.670848 4.469402 1.881794
2005-05-11 08:19:07 51°13.551 2°56.147 19.2004 0.670848 4.469402 1.881794
2005-05-11 08:19:12 51°13.546 2°56.153 19.202 0.670848 4.469484 1.881794
2005-05-11 08:19:17 51°13.543 2°56.158 19.2222 0.670744 4.468657 1.881794
2005-05-11 08:19:22 51°13.539 2°56.164 19.2366 0.670744 4.468739 1.915503
2005-05-11 08:19:27 51°13.535 2°56.17 19.3058 0.670744 4.468739 1.915503
2005-05-11 08:19:32 51°13.532 2°56.176 19.3006 0.670744 4.468739 1.881794
2005-05-11 08:19:36 51°13.53 2°56.182 19.3016 0.67064 4.467912 1.881794
2005-05-11 08:19:42 51°13.527 2°56.189 19.2968 0.670744 4.467673 1.915503
2005-05-11 08:19:47 51°13.526 2°56.195 19.2908 0.670744 4.467018 1.881794
2005-05-11 08:19:51 51°13.525 2°56.2 19.291 0.670744 4.467509 1.881794
2005-05-11 08:19:57 51°13.524 2°56.207 19.3497 0.670744 4.467509 1.881794
2005-05-11 08:20:02 51°13.523 2°56.214 19.3119 0.670744 4.468493 1.881794
2005-05-11 08:20:07 51°13.523 2°56.221 19.3056 0.670848 4.469812 1.881794
2005-05-11 08:20:12 51°13.524 2°56.229 19.2992 0.670848 4.469812 1.915503
2005-05-11 08:20:17 51°13.525 2°56.235 19.2886 0.670953 4.470558 1.881794
2005-05-11 08:20:22 51°13.526 2°56.241 19.2841 0.670953 4.470558 1.881794
2005-05-11 08:20:27 51°13.528 2°56.247 19.2832 0.671057 4.471467 1.881794
2005-05-11 08:20:32 51°13.53 2°56.254 19.2707 0.671057 4.471221 1.848084
2005-05-11 08:20:36 51°13.531 2°56.257 19.2822 0.671057 4.470482 1.881794
2005-05-11 08:20:42 51°13.533 2°56.261 19.2836 0.670953 4.469409 1.915503
2005-05-11 08:20:47 51°13.534 2°56.262 19.2812 0.671057 4.470154 1.881794
2005-05-11 08:20:52 51°13.534 2°56.262 19.2625 0.671057 4.470154 1.881794
2005-05-11 08:20:57 51°13.534 2°56.26 19.2792 0.670953 4.469901 1.915503
2005-05-11 08:21:02 51°13.533 2°56.258 19.2832 0.670953 4.470229 1.881794
2005-05-11 08:21:07 51°13.533 2°56.256 19.2771 0.670953 4.470229 1.848084
2005-05-11 08:21:12 51°13.533 2°56.254 19.2793 0.670953 4.470311 1.881794
2005-05-11 08:21:17 51°13.533 2°56.252 19.2797 0.670953 4.470229 1.915503
2005-05-11 08:21:23 51°13.533 2°56.253 19.2816 0.670953 4.470065 1.848084
2005-05-11 08:21:27 51°13.534 2°56.254 19.2787 0.670953 4.470065 1.848084
2005-05-11 08:21:32 51°13.536 2°56.255 19.2756 0.670953 4.469901 1.881794
2005-05-11 08:21:36 51°13.537 2°56.256 19.2748 0.670848 4.468992 1.881794
2005-05-11 08:21:42 51°13.538 2°56.256 19.2704 0.670848 4.469074 1.881794
2005-05-11 08:21:47 51°13.539 2°56.256 19.2676 0.670848 4.469238 1.881794
2005-05-11 08:21:52 51°13.539 2°56.256 19.2445 0.670848 4.469402 1.848084
2005-05-11 08:21:56 51°13.538 2°56.255 19.2628 0.670848 4.469402 1.848084
2005-05-11 08:22:02 51°13.537 2°56.252 19.2605 0.670848 4.469648 1.915503
2005-05-11 08:22:06 51°13.535 2°56.251 19.2521 0.670848 4.469812 1.881794
2005-05-11 08:22:12 51°13.533 2°56.248 19.2546 0.670848 4.46973 1.881794
2005-05-11 08:22:17 51°13.532 2°56.247 19.2569 0.670848 4.46973 1.881794
2005-05-11 08:22:22 51°13.531 2°56.245 19.2561 0.670848 4.46973 1.881794
2005-05-11 08:22:27 51°13.53 2°56.244 19.2585 0.670848 4.469566 1.881794
2005-05-11 08:22:32 51°13.531 2°56.244 19.2593 0.670848 4.469566 1.881794
2005-05-11 08:22:36 51°13.532 2°56.244 19.2547 0.670848 4.469484 1.881794
2005-05-11 08:22:42 51°13.535 2°56.243 19.2519 0.670848 4.46932 1.881794
2005-05-11 08:22:47 51°13.536 2°56.243 19.2466 0.670848 4.469402 1.881794
2005-05-11 08:22:52 51°13.538 2°56.242 19.2292 0.670848 4.469402 1.881794
2005-05-11 08:22:56 51°13.54 2°56.241 19.2251 0.670848 4.469402 1.881794
2005-05-11 08:23:02 51°13.541 2°56.241 19.2417 0.670848 4.469484 1.848084
2005-05-11 08:23:07 51°13.541 2°56.24 19.1433 0.670744 4.468985 1.881794
2005-05-11 08:23:12 51°13.539 2°56.24 19.1812 0.670744 4.468903 1.848084
2005-05-11 08:23:16 51°13.538 2°56.24 19.2138 0.670744 4.468985 1.881794
2005-05-11 08:23:22 51°13.536 2°56.24 19.2291 0.670848 4.469648 1.915503
2005-05-11 08:23:27 51°13.534 2°56.241 19.2264 0.670848 4.469648 1.915503
2005-05-11 08:23:32 51°13.532 2°56.242 19.219 0.670744 4.468903 1.848084
2005-05-11 08:23:36 51°13.531 2°56.242 19.2114 0.670744 4.468739 1.881794
2005-05-11 08:23:43 51°13.529 2°56.243 19.209 0.670744 4.468821 1.881794
2005-05-11 08:23:47 51°13.528 2°56.244 19.2142 0.670744 4.468739 1.881794
2005-05-11 08:23:52 51°13.527 2°56.245 19.2151 0.670744 4.468821 1.848084
2005-05-11 08:23:56 51°13.527 2°56.245 19.2182 0.670744 4.468821 1.848084
2005-05-11 08:24:02 51°13.527 2°56.245 19.2175 0.670744 4.468739 1.915503
2005-05-11 08:24:12 51°13.527 2°56.245 19.2263 0.670744 4.468903 1.881794
2005-05-11 08:24:16 51°13.528 2°56.244 19.2296 0.670744 4.468903 1.881794
2005-05-11 08:24:22 51°13.53 2°56.242 19.242 0.670744 4.468903 1.881794
2005-05-11 08:24:27 51°13.531 2°56.239 19.2355 0.670744 4.468739 1.881794
2005-05-11 08:24:32 51°13.534 2°56.235 19.2338 0.670744 4.468739 1.881794
2005-05-11 08:24:37 51°13.535 2°56.232 19.2306 0.670744 4.468739 1.848084
2005-05-11 08:24:42 51°13.537 2°56.227 19.2294 0.670744 4.468739 1.848084
2005-05-11 08:24:47 51°13.538 2°56.222 19.2291 0.670744 4.468903 1.915503
2005-05-11 08:24:52 51°13.54 2°56.217 19.2286 0.670744 4.468985 1.881794
2005-05-11 08:24:57 51°13.541 2°56.211 19.2253 0.670744 4.468985 1.881794
2005-05-11 08:25:01 51°13.542 2°56.206 19.2142 0.670744 4.469067 1.848084
2005-05-11 08:25:07 51°13.543 2°56.199 19.2012 0.670744 4.469149 1.881794
2005-05-11 08:25:12 51°13.544 2°56.192 19.196 0.670744 4.469067 1.881794
2005-05-11 08:25:16 51°13.546 2°56.186 19.1971 0.670744 4.469067 1.848084
2005-05-11 08:25:22 51°13.548 2°56.179 19.1981 0.670744 4.469067 1.848084
2005-05-11 08:25:27 51°13.55 2°56.172 19.1949 0.670744 4.469149 1.881794
2005-05-11 08:25:32 51°13.553 2°56.164 19.1906 0.670744 4.469149 1.848084
2005-05-11 08:25:36 51°13.555 2°56.157 19.189 0.670744 4.469231 1.881794
2005-05-11 08:25:42 51°13.558 2°56.148 19.1858 0.67064 4.468568 1.848084
2005-05-11 08:25:47 51°13.56 2°56.141 19.1873 0.670744 4.469231 1.848084
2005-05-11 08:25:52 51°13.563 2°56.132 19.1872 0.670744 4.469231 1.848084
2005-05-11 08:25:56 51°13.565 2°56.125 19.1895 0.67064 4.468486 1.881794
2005-05-11 08:26:02 51°13.569 2°56.115 19.1908 0.670744 4.469313 1.848084
2005-05-11 08:26:07 51°13.572 2°56.107 19.1923 0.67064 4.468568 1.881794
2005-05-11 08:26:12 51°13.575 2°56.097 19.1903 0.670744 4.469477 1.881794
2005-05-11 08:26:16 51°13.577 2°56.09 19.1877 0.67064 4.468732 1.881794
2005-05-11 08:26:22 51°13.581 2°56.079 19.1863 0.67064 4.468814 1.881794
2005-05-11 08:26:27 51°13.584 2°56.071 19.1866 0.67064 4.468814 1.881794
2005-05-11 08:26:31 51°13.587 2°56.064 19.1865 0.67064 4.468732 1.881794
2005-05-11 08:26:36 51°13.591 2°56.054 19.1875 0.67064 4.468732 1.881794
2005-05-11 08:26:42 51°13.595 2°56.045 19.1916 0.67064 4.46865 1.848084
2005-05-11 08:26:47 51°13.599 2°56.036 19.1951 0.67064 4.468732 1.881794
2005-05-11 08:26:52 51°13.603 2°56.027 19.1979 0.67064 4.468732 1.848084
2005-05-11 08:26:56 51°13.607 2°56.018 19.1997 0.67064 4.468732 1.848084
2005-05-11 08:27:02 51°13.612 2°56.007 19.1981 0.67064 4.468732 1.881794
2005-05-11 08:27:07 51°13.616 2°55.997 19.1907 0.67064 4.468732 1.848084
2005-05-11 08:27:12 51°13.62 2°55.986 19.1896 0.67064 4.468814 1.881794
2005-05-11 08:27:16 51°13.624 2°55.976 19.1873 0.67064 4.468732 1.881794
2005-05-11 08:27:22 51°13.63 2°55.963 19.1859 0.67064 4.468732 1.881794
2005-05-11 08:27:27 51°13.634 2°55.953 19.1874 0.67064 4.468814 1.848084
2005-05-11 08:27:32 51°13.639 2°55.941 19.1902 0.67064 4.468732 1.848084
2005-05-11 08:27:37 51°13.643 2°55.931 19.1887 0.67064 4.468732 1.881794
2005-05-11 08:27:42 51°13.648 2°55.92 19.1873 0.67064 4.468814 1.881794
2005-05-11 08:27:46 51°13.652 2°55.909 19.1844 0.67064 4.468732 1.848084
2005-05-11 08:27:52 51°13.658 2°55.896 19.1831 0.67064 4.468732 1.848084
2005-05-11 08:27:56 51°13.662 2°55.887 19.1783 0.67064 4.468814 1.848084
2005-05-11 08:28:02 51°13.669 2°55.873 19.1755 0.67064 4.468896 1.848084
2005-05-11 08:28:07 51°13.673 2°55.863 19.1731 0.67064 4.468896 1.848084
2005-05-11 08:28:12 51°13.678 2°55.851 19.1735 0.67064 4.468814 1.848084
2005-05-11 08:28:17 51°13.684 2°55.84 19.1735 0.67064 4.468896 1.881794
2005-05-11 08:28:22 51°13.69 2°55.828 19.1755 0.67064 4.468814 1.881794
2005-05-11 08:28:27 51°13.695 2°55.817 19.176 0.67064 4.468814 1.881794
2005-05-11 08:28:31 51°13.699 2°55.807 19.1787 0.67064 4.468896 1.848084
2005-05-11 08:28:37 51°13.705 2°55.794 19.1732 0.67064 4.468896 1.881794
2005-05-11 08:28:42 51°13.712 2°55.781 19.1618 0.67064 4.468978 1.881794
2005-05-11 08:28:47 51°13.717 2°55.77 19.1354 0.67064 4.468978 1.881794
2005-05-11 08:28:52 51°13.723 2°55.758 19.1277 0.67064 4.468896 1.848084
2005-05-11 08:28:57 51°13.73 2°55.747 19.1271 0.67064 4.468896 1.848084
2005-05-11 08:29:02 51°13.735 2°55.738 19.1308 0.67064 4.468978 1.881794
2005-05-11 08:29:07 51°13.742 2°55.728 19.1409 0.670535 4.468233 1.848084
2005-05-11 08:29:12 51°13.749 2°55.719 19.1478 0.670535 4.468233 1.814375
2005-05-11 08:29:16 51°13.754 2°55.712 19.151 0.670535 4.468315 1.848084
2005-05-11 08:29:22 51°13.762 2°55.703 19.1578 0.670535 4.468315 1.848084
2005-05-11 08:29:27 51°13.769 2°55.695 19.1709 0.67064 4.46906 1.848084
2005-05-11 08:29:31 51°13.775 2°55.689 19.1772 0.670535 4.468233 1.848084
2005-05-11 08:29:36 51°13.782 2°55.682 19.1862 0.67064 4.46906 1.848084
2005-05-11 08:29:40 51°13.787 2°55.676 19.1869 0.670535 4.468315 1.881794
2005-05-11 08:29:47 51°13.797 2°55.667 19.1894 0.670535 4.468233 1.848084
2005-05-11 08:29:52 51°13.804 2°55.66 19.1887 0.670535 4.468315 1.848084
2005-05-11 08:29:56 51°13.81 2°55.655 19.1909 0.670535 4.468315 1.848084
2005-05-11 08:30:02 51°13.818 2°55.647 19.1874 0.670535 4.468315 1.881794
2005-05-11 08:30:07 51°13.825 2°55.641 19.1834 0.670535 4.468315 1.881794
2005-05-11 08:30:12 51°13.832 2°55.635 19.1824 0.670535 4.468397 1.814375
2005-05-11 08:30:16 51°13.839 2°55.63 19.1815 0.670535 4.468397 1.848084
2005-05-11 08:30:22 51°13.848 2°55.623 19.1837 0.670535 4.468397 1.814375
2005-05-11 08:30:27 51°13.855 2°55.618 19.1853 0.670535 4.468397 1.814375
2005-05-11 08:30:31 51°13.862 2°55.613 19.1851 0.670535 4.468397 1.814375
2005-05-11 08:30:37 51°13.872 2°55.607 19.183 0.670535 4.468397 1.848084
2005-05-11 08:30:42 51°13.881 2°55.602 19.183 0.670535 4.468397 1.881794
2005-05-11 08:30:47 51°13.889 2°55.597 19.1849 0.670535 4.468397 1.848084
2005-05-11 08:30:52 51°13.898 2°55.591 19.1975 0.670535 4.468397 1.814375
2005-05-11 08:30:57 51°13.906 2°55.586 19.1966 0.670535 4.468397 1.814375
2005-05-11 08:31:02 51°13.915 2°55.58 19.1982 0.670535 4.468397 1.848084
2005-05-11 08:31:07 51°13.924 2°55.574 19.1902 0.670535 4.468479 1.848084
2005-05-11 08:31:12 51°13.934 2°55.568 19.1836 0.670535 4.468479 1.848084
2005-05-11 08:31:17 51°13.942 2°55.562 19.173 0.670535 4.468561 1.848084
2005-05-11 08:31:22 51°13.951 2°55.557 19.1698 0.670535 4.468561 1.848084
2005-05-11 08:31:27 51°13.96 2°55.551 19.1723 0.670535 4.468479 1.848084
2005-05-11 08:31:32 51°13.97 2°55.545 19.181 0.670535 4.468561 1.848084
2005-05-11 08:31:37 51°13.978 2°55.54 19.1854 0.670535 4.468479 1.848084
2005-05-11 08:31:41 51°13.986 2°55.535 19.1827 0.670535 4.468561 1.814375
2005-05-11 08:31:47 51°13.996 2°55.529 19.1837 0.670535 4.468643 1.881794
2005-05-11 08:31:52 51°14.007 2°55.523 19.1776 0.670535 4.468561 1.848084
2005-05-11 08:31:57 51°14.016 2°55.517 19.1759 0.670535 4.468561 1.848084
2005-05-11 08:32:02 51°14.025 2°55.512 19.1733 0.670535 4.468561 1.848084
2005-05-11 08:32:07 51°14.033 2°55.507 19.1751 0.670535 4.468561 1.848084
2005-05-11 08:32:12 51°14.044 2°55.501 19.1789 0.670535 4.468561 1.881794
2005-05-11 08:32:17 51°14.052 2°55.497 19.1859 0.670535 4.468561 1.814375
2005-05-11 08:32:22 51°14.061 2°55.491 19.1924 0.670535 4.468643 1.848084
2005-05-11 08:32:27 51°14.069 2°55.485 19.1943 0.670535 4.468643 1.848084
2005-05-11 08:32:31 51°14.077 2°55.48 19.1955 0.670535 4.468643 1.881794
2005-05-11 08:32:36 51°14.085 2°55.474 19.2009 0.670535 4.468643 1.848084
2005-05-11 08:32:42 51°14.095 2°55.467 19.1985 0.670535 4.468725 1.848084
2005-05-11 08:32:47 51°14.102 2°55.461 19.2003 0.670535 4.468643 1.848084
2005-05-11 08:32:52 51°14.111 2°55.454 19.2021 0.670535 4.468643 1.848084
2005-05-11 08:32:56 51°14.117 2°55.449 19.201 0.670535 4.468643 1.848084
2005-05-11 08:33:02 51°14.126 2°55.441 19.1997 0.670535 4.468725 1.848084
2005-05-11 08:33:07 51°14.134 2°55.434 19.2135 0.670535 4.468807 1.848084
2005-05-11 08:33:11 51°14.141 2°55.428 19.2379 0.670535 4.468725 1.848084
2005-05-11 08:33:16 51°14.149 2°55.419 19.2374 0.670535 4.468807 1.814375
2005-05-11 08:33:22 51°14.16 2°55.408 19.2135 0.670431 4.46798 1.814375
2005-05-11 08:33:27 51°14.168 2°55.4 19.1721 0.670431 4.46798 1.814375
2005-05-11 08:33:32 51°14.177 2°55.389 19.1729 0.670535 4.468725 1.848084
2005-05-11 08:33:37 51°14.185 2°55.38 19.1893 0.670431 4.467898 1.881794
2005-05-11 08:33:42 51°14.194 2°55.369 19.2002 0.670431 4.46798 1.848084
2005-05-11 08:33:47 51°14.203 2°55.359 19.1937 0.670431 4.46798 1.848084
2005-05-11 08:33:52 51°14.213 2°55.346 19.1628 0.670431 4.468062 1.848084
2005-05-11 08:33:57 51°14.221 2°55.336 19.2093 0.670431 4.468062 1.848084
2005-05-11 08:34:02 51°14.232 2°55.323 19.2151 0.670431 4.468062 1.814375
2005-05-11 08:34:07 51°14.24 2°55.313 19.2109 0.670431 4.468062 1.848084
2005-05-11 08:34:12 51°14.249 2°55.3 19.2116 0.670535 4.468725 1.848084
2005-05-11 08:34:17 51°14.258 2°55.287 19.2284 0.670535 4.468807 1.814375
2005-05-11 08:34:22 51°14.266 2°55.274 19.2476 0.670431 4.468062 1.814375
2005-05-11 08:34:27 51°14.275 2°55.26 19.2402 0.670431 4.468062 1.814375
2005-05-11 08:34:31 51°14.281 2°55.249 19.2423 0.670431 4.468062 1.814375
2005-05-11 08:34:36 51°14.289 2°55.232 19.1753 0.670431 4.468062 1.848084
2005-05-11 08:34:42 51°14.299 2°55.213 19.2021 0.670535 4.468889 1.814375
2005-05-11 08:34:47 51°14.306 2°55.198 19.1344 0.67064 4.469635 1.814375
2005-05-11 08:34:51 51°14.314 2°55.182 19.1456 0.67064 4.469635 1.814375
2005-05-11 08:34:56 51°14.322 2°55.166 19.1319 0.67064 4.469635 1.881794
2005-05-11 08:35:02 51°14.333 2°55.143 19.1842 0.67064 4.469553 1.848084
2005-05-11 08:35:07 51°14.341 2°55.125 19.1702 0.670535 4.468807 1.814375
2005-05-11 08:35:12 51°14.351 2°55.103 19.0868 0.67064 4.469635 1.814375
2005-05-11 08:35:16 51°14.357 2°55.087 18.985 0.670535 4.468972 1.814375
2005-05-11 08:35:22 51°14.366 2°55.061 19.0295 0.67064 4.469635 1.848084
2005-05-11 08:35:27 51°14.373 2°55.041 19.0593 0.67064 4.469635 1.848084
2005-05-11 08:35:32 51°14.381 2°55.016 19.0349 0.670535 4.468807 1.814375
2005-05-11 08:35:36 51°14.386 2°54.996 19.0862 0.670535 4.468807 1.848084
2005-05-11 08:35:42 51°14.393 2°54.968 19.1095 0.670535 4.468643 1.814375
2005-05-11 08:35:47 51°14.399 2°54.939 19.0416 0.670535 4.468725 1.814375
2005-05-11 08:35:52 51°14.403 2°54.911 19.0418 0.67064 4.469881 1.848084
2005-05-11 08:35:57 51°14.405 2°54.885 18.9908 0.67064 4.469881 1.848084
2005-05-11 08:36:02 51°14.407 2°54.854 18.912 0.67064 4.470127 1.848084
2005-05-11 08:36:07 51°14.409 2°54.827 18.9087 0.670744 4.470873 1.848084
2005-05-11 08:36:12 51°14.412 2°54.795 18.9882 0.670744 4.470626 1.848084
2005-05-11 08:36:17 51°14.414 2°54.768 18.8985 0.670744 4.470216 1.848084
2005-05-11 08:36:22 51°14.418 2°54.736 18.8472 0.670744 4.469888 1.814375
2005-05-11 08:36:27 51°14.421 2°54.708 18.8966 0.670744 4.469888 1.814375
2005-05-11 08:36:32 51°14.425 2°54.679 18.9216 0.67064 4.468896 1.848084
2005-05-11 08:36:37 51°14.431 2°54.647 18.9508 0.670744 4.469806 1.848084
2005-05-11 08:36:42 51°14.436 2°54.618 18.9578 0.67064 4.469225 1.814375
2005-05-11 08:36:47 51°14.441 2°54.591 18.9062 0.670744 4.47038 1.848084
2005-05-11 08:36:52 51°14.447 2°54.562 18.9492 0.670744 4.47038 1.848084
2005-05-11 08:36:57 51°14.452 2°54.529 18.8174 0.67064 4.469635 1.848084
2005-05-11 08:37:02 51°14.459 2°54.5 18.8139 0.670744 4.470462 1.848084
2005-05-11 08:37:07 51°14.465 2°54.474 18.7597 0.67064 4.469635 1.814375
2005-05-11 08:37:12 51°14.472 2°54.445 18.7463 0.67064 4.469799 1.814375
2005-05-11 08:37:16 51°14.478 2°54.419 18.8379 0.67064 4.469881 1.848084
2005-05-11 08:37:22 51°14.486 2°54.384 18.7105 0.670535 4.468972 1.848084
2005-05-11 08:37:27 51°14.492 2°54.357 18.7578 0.670535 4.468972 1.848084
2005-05-11 08:37:32 51°14.499 2°54.328 18.7042 0.67064 4.469471 1.814375
2005-05-11 08:37:36 51°14.505 2°54.303 18.7437 0.67064 4.46906 1.848084
2005-05-11 08:37:42 51°14.516 2°54.269 18.6423 0.670535 4.468069 1.814375
2005-05-11 08:37:47 51°14.525 2°54.245 18.7099 0.67064 4.468732 1.814375
2005-05-11 08:37:52 51°14.535 2°54.216 18.6725 0.670535 4.467905 1.848084
2005-05-11 08:37:56 51°14.543 2°54.195 18.7197 0.670535 4.467905 1.848084
2005-05-11 08:38:00 51°14.552 2°54.174 18.7058 0.670535 4.467905 1.848084
2005-05-11 08:38:07 51°14.566 2°54.141 18.6705 0.670535 4.467823 1.848084
2005-05-11 08:38:12 51°14.578 2°54.114 18.7322 0.670535 4.467905 1.814375
2005-05-11 08:38:17 51°14.589 2°54.093 18.7105 0.670431 4.46716 1.848084
2005-05-11 08:38:22 51°14.6 2°54.068 18.6589 0.670431 4.46716 1.848084
2005-05-11 08:38:27 51°14.611 2°54.043 18.6258 0.670431 4.467406 1.814375
2005-05-11 08:38:32 51°14.623 2°54.016 18.6945 0.670535 4.468397 1.814375
2005-05-11 08:38:37 51°14.634 2°53.994 18.6567 0.670431 4.467488 1.848084
2005-05-11 08:38:42 51°14.645 2°53.968 18.633 0.670431 4.467324 1.814375
2005-05-11 08:38:47 51°14.655 2°53.943 18.6436 0.670431 4.46716 1.814375
2005-05-11 08:38:52 51°14.667 2°53.916 18.6777 0.670535 4.467741 1.814375
2005-05-11 08:38:56 51°14.676 2°53.895 18.6738 0.670535 4.467741 1.814375
2005-05-11 08:39:02 51°14.688 2°53.868 18.6802 0.670535 4.467577 1.814375
2005-05-11 08:39:07 51°14.699 2°53.843 18.712 0.670431 4.46675 1.814375
2005-05-11 08:39:12 51°14.71 2°53.818 18.6625 0.670535 4.467659 1.780665
2005-05-11 08:39:17 51°14.72 2°53.793 18.6806 0.670431 4.467078 1.848084
2005-05-11 08:39:22 51°14.732 2°53.766 18.5664 0.670431 4.466996 1.814375
2005-05-11 08:39:27 51°14.741 2°53.743 18.5978 0.670431 4.466996 1.814375
2005-05-11 08:39:31 51°14.749 2°53.723 18.577 0.670535 4.467987 1.814375
2005-05-11 08:39:37 51°14.763 2°53.69 18.6081 0.670431 4.466996 1.814375
2005-05-11 08:39:42 51°14.773 2°53.664 18.598 0.670535 4.467823 1.848084
2005-05-11 08:39:47 51°14.782 2°53.642 18.6128 0.670535 4.467741 1.848084
2005-05-11 08:39:52 51°14.794 2°53.613 18.6036 0.670431 4.466996 1.814375
2005-05-11 08:39:56 51°14.802 2°53.593 18.5741 0.670431 4.466996 1.814375
2005-05-11 08:40:02 51°14.814 2°53.564 18.6195 0.670431 4.467078 1.814375
2005-05-11 08:40:07 51°14.823 2°53.543 18.6478 0.670431 4.467242 1.814375
2005-05-11 08:40:12 51°14.832 2°53.521 18.6366 0.670535 4.468233 1.814375
2005-05-11 08:40:17 51°14.842 2°53.499 18.6348 0.670431 4.467406 1.848084
2005-05-11 08:40:22 51°14.851 2°53.477 18.6158 0.670431 4.467406 1.848084
2005-05-11 08:40:27 51°14.858 2°53.458 18.6153 0.670431 4.46716 1.814375
2005-05-11 08:40:32 51°14.865 2°53.435 18.6115 0.670431 4.46716 1.780665
2005-05-11 08:40:37 51°14.871 2°53.416 18.6047 0.670431 4.46716 1.814375
2005-05-11 08:40:42 51°14.876 2°53.394 18.6111 0.670535 4.468069 1.848084
2005-05-11 08:40:47 51°14.88 2°53.373 18.6161 0.670431 4.467406 1.814375
2005-05-11 08:40:52 51°14.884 2°53.353 18.5974 0.670431 4.46757 1.814375
2005-05-11 08:40:57 51°14.888 2°53.336 18.5931 0.670431 4.46757 1.814375
2005-05-11 08:41:01 51°14.891 2°53.318 18.592 0.670431 4.46757 1.814375
2005-05-11 08:41:07 51°14.895 2°53.297 18.5939 0.670431 4.467652 1.848084
2005-05-11 08:41:12 51°14.899 2°53.276 18.5797 0.670431 4.467652 1.814375
2005-05-11 08:41:16 51°14.902 2°53.261 18.5816 0.670431 4.467488 1.814375
2005-05-11 08:41:22 51°14.906 2°53.241 18.5881 0.670431 4.467488 1.814375
2005-05-11 08:41:27 51°14.909 2°53.223 18.5873 0.670431 4.467488 1.814375
2005-05-11 08:41:32 51°14.913 2°53.202 18.5989 0.670431 4.467488 1.814375
2005-05-11 08:41:37 51°14.916 2°53.186 18.5799 0.670326 4.466743 1.814375
2005-05-11 08:41:42 51°14.919 2°53.168 18.5834 0.670326 4.466661 1.814375
2005-05-11 08:41:47 51°14.923 2°53.151 18.5795 0.670431 4.467406 1.780665
2005-05-11 08:41:52 51°14.926 2°53.133 18.5577 0.670431 4.46757 1.814375
2005-05-11 08:41:57 51°14.929 2°53.115 18.5708 0.670431 4.46757 1.814375
2005-05-11 08:42:02 51°14.933 2°53.096 18.524 0.670431 4.46757 1.848084
2005-05-11 08:42:07 51°14.936 2°53.08 18.5644 0.670326 4.466907 1.780665
2005-05-11 08:42:11 51°14.939 2°53.065 18.5772 0.670431 4.467488 1.780665
2005-05-11 08:42:16 51°14.942 2°53.047 18.5837 0.670326 4.466825 1.814375
2005-05-11 08:42:22 51°14.946 2°53.026 18.5705 0.670326 4.466743 1.814375
2005-05-11 08:42:27 51°14.947 2°53.01 18.5763 0.670326 4.466743 1.814375
2005-05-11 08:42:32 51°14.949 2°52.992 18.5419 0.670326 4.466661 1.780665
2005-05-11 08:42:36 51°14.949 2°52.975 18.5537 0.670431 4.46757 1.814375
2005-05-11 08:42:42 51°14.949 2°52.953 18.5582 0.670326 4.466661 1.814375
2005-05-11 08:42:47 51°14.949 2°52.936 18.5572 0.670326 4.466907 1.814375
2005-05-11 08:42:52 51°14.948 2°52.916 18.571 0.670431 4.467734 1.780665
2005-05-11 08:42:56 51°14.947 2°52.901 18.5752 0.670431 4.467734 1.780665
2005-05-11 08:43:02 51°14.945 2°52.88 18.5612 0.670326 4.467071 1.814375
2005-05-11 08:43:07 51°14.943 2°52.862 18.5599 0.670326 4.467153 1.848084
2005-05-11 08:43:11 51°14.941 2°52.847 18.558 0.670326 4.467071 1.814375
2005-05-11 08:43:16 51°14.939 2°52.826 18.5596 0.670326 4.466989 1.814375
2005-05-11 08:43:22 51°14.936 2°52.805 18.5775 0.670326 4.466989 1.848084
2005-05-11 08:43:27 51°14.933 2°52.786 18.5544 0.670326 4.466989 1.848084
2005-05-11 08:43:32 51°14.93 2°52.766 18.5663 0.670326 4.466989 1.814375
2005-05-11 08:43:36 51°14.928 2°52.75 18.5787 0.670326 4.467071 1.780665
2005-05-11 08:43:42 51°14.925 2°52.73 18.5838 0.670326 4.466989 1.814375
2005-05-11 08:43:47 51°14.922 2°52.71 18.5764 0.670431 4.467816 1.814375
2005-05-11 08:43:52 51°14.92 2°52.689 18.5784 0.670326 4.467071 1.814375
2005-05-11 08:43:56 51°14.918 2°52.674 18.5781 0.670326 4.467071 1.814375
2005-05-11 08:44:02 51°14.916 2°52.651 18.5764 0.670326 4.467153 1.848084
2005-05-11 08:44:07 51°14.914 2°52.635 18.5722 0.670326 4.467071 1.814375
2005-05-11 08:44:12 51°14.912 2°52.615 18.5843 0.670222 4.466244 1.780665
2005-05-11 08:44:16 51°14.91 2°52.598 18.5751 0.670326 4.466989 1.780665
2005-05-11 08:44:22 51°14.908 2°52.577 18.565 0.670222 4.466244 1.814375
2005-05-11 08:44:27 51°14.907 2°52.557 18.5792 0.670222 4.466244 1.814375
2005-05-11 08:44:32 51°14.904 2°52.536 18.5904 0.670326 4.466989 1.780665
2005-05-11 08:44:36 51°14.903 2°52.521 18.5892 0.670326 4.467071 1.814375
2005-05-11 08:44:43 51°14.9 2°52.495 18.5806 0.670326 4.467153 1.814375
2005-05-11 08:44:47 51°14.899 2°52.48 18.5845 0.670326 4.467153 1.814375
2005-05-11 08:44:52 51°14.897 2°52.459 18.5796 0.670222 4.466408 1.814375
2005-05-11 08:44:56 51°14.895 2°52.443 18.5793 0.670222 4.466408 1.814375
2005-05-11 08:45:02 51°14.893 2°52.422 18.5861 0.670326 4.467153 1.814375
2005-05-11 08:45:07 51°14.892 2°52.403 18.572 0.670222 4.466408 1.780665
2005-05-11 08:45:12 51°14.89 2°52.381 18.5693 0.670222 4.466408 1.814375
2005-05-11 08:45:16 51°14.888 2°52.365 18.5867 0.670222 4.466408 1.780665
2005-05-11 08:45:22 51°14.886 2°52.344 18.578 0.670222 4.466408 1.780665
2005-05-11 08:45:27 51°14.884 2°52.325 18.5514 0.670326 4.467153 1.814375
2005-05-11 08:45:32 51°14.883 2°52.303 18.58 0.670326 4.467153 1.848084
2005-05-11 08:45:36 51°14.881 2°52.288 18.5978 0.670222 4.466326 1.780665
2005-05-11 08:45:40 51°14.88 2°52.272 18.5625 0.670222 4.466408 1.814375
2005-05-11 08:45:47 51°14.877 2°52.246 18.5953 0.670326 4.467153 1.814375
2005-05-11 08:45:52 51°14.875 2°52.225 18.5784 0.670222 4.466408 1.780665
2005-05-11 08:45:56 51°14.873 2°52.209 18.6005 0.670222 4.466408 1.780665
2005-05-11 08:46:03 51°14.871 2°52.184 18.5546 0.670222 4.466244 1.814375
2005-05-11 08:46:07 51°14.87 2°52.168 18.583 0.670326 4.467153 1.780665
2005-05-11 08:46:11 51°14.868 2°52.152 18.5766 0.670222 4.466326 1.780665
2005-05-11 08:46:16 51°14.866 2°52.13 18.5943 0.670326 4.467235 1.814375
2005-05-11 08:46:22 51°14.864 2°52.107 18.5934 0.670222 4.46649 1.814375
2005-05-11 08:46:27 51°14.862 2°52.089 18.5912 0.670222 4.46649 1.814375
2005-05-11 08:46:32 51°14.86 2°52.068 18.5845 0.670326 4.467317 1.780665
2005-05-11 08:46:36 51°14.858 2°52.052 18.5901 0.670222 4.466654 1.780665
2005-05-11 08:46:42 51°14.856 2°52.028 18.58 0.670326 4.467399 1.780665
2005-05-11 08:46:47 51°14.854 2°52.01 18.5864 0.670326 4.467317 1.780665
2005-05-11 08:46:52 51°14.852 2°51.991 18.5881 0.670222 4.466408 1.780665
2005-05-11 08:46:57 51°14.849 2°51.969 18.588 0.670222 4.466408 1.780665
2005-05-11 08:47:02 51°14.848 2°51.951 18.5937 0.670326 4.467235 1.814375
2005-05-11 08:47:07 51°14.846 2°51.93 18.59 0.670222 4.466408 1.814375
2005-05-11 08:47:12 51°14.843 2°51.906 18.588 0.670222 4.466408 1.814375
2005-05-11 08:47:17 51°14.841 2°51.885 18.5854 0.670222 4.46649 1.780665
2005-05-11 08:47:22 51°14.839 2°51.86 18.5948 0.670222 4.46649 1.814375
2005-05-11 08:47:27 51°14.837 2°51.835 18.5793 0.670222 4.46649 1.814375
2005-05-11 08:47:32 51°14.834 2°51.806 18.5949 0.670222 4.466408 1.780665
2005-05-11 08:47:37 51°14.832 2°51.782 18.5759 0.670222 4.466408 1.780665
2005-05-11 08:47:42 51°14.829 2°51.754 18.5904 0.670222 4.46649 1.814375
2005-05-11 08:47:47 51°14.827 2°51.727 18.5109 0.670222 4.466572 1.746956
2005-05-11 08:47:51 51°14.825 2°51.701 18.5832 0.670326 4.467399 1.814375
2005-05-11 08:47:57 51°14.822 2°51.669 18.5915 0.670326 4.467399 1.814375
2005-05-11 08:48:02 51°14.819 2°51.637 18.6116 0.670117 4.465908 1.814375
2005-05-11 08:48:07 51°14.817 2°51.61 18.6025 0.670222 4.466572 1.780665
2005-05-11 08:48:12 51°14.813 2°51.581 18.5732 0.670222 4.466572 1.780665
2005-05-11 08:48:17 51°14.809 2°51.552 18.5736 0.670117 4.465826 1.780665
2005-05-11 08:48:22 51°14.803 2°51.52 18.5912 0.670117 4.465908 1.780665
2005-05-11 08:48:27 51°14.798 2°51.494 18.5775 0.670117 4.465908 1.780665
2005-05-11 08:48:32 51°14.791 2°51.462 18.5717 0.670117 4.46599 1.746956
2005-05-11 08:48:37 51°14.785 2°51.436 18.5446 0.670117 4.465908 1.780665
2005-05-11 08:48:42 51°14.778 2°51.405 18.6067 0.670117 4.466072 1.780665
2005-05-11 08:48:47 51°14.771 2°51.375 18.5865 0.670117 4.46599 1.780665
2005-05-11 08:48:52 51°14.765 2°51.349 18.5925 0.670117 4.46599 1.780665
2005-05-11 08:48:57 51°14.758 2°51.321 18.5517 0.670117 4.466072 1.780665
2005-05-11 08:49:02 51°14.75 2°51.288 18.5941 0.670117 4.466072 1.814375
2005-05-11 08:49:07 51°14.744 2°51.263 18.5536 0.670117 4.46599 1.780665
2005-05-11 08:49:12 51°14.737 2°51.231 18.593 0.670117 4.466154 1.780665
2005-05-11 08:49:17 51°14.73 2°51.205 18.6083 0.670117 4.466072 1.780665
2005-05-11 08:49:22 51°14.723 2°51.173 18.592 0.670117 4.466072 1.780665
2005-05-11 08:49:27 51°14.716 2°51.144 18.6291 0.670117 4.466072 1.780665
2005-05-11 08:49:32 51°14.708 2°51.116 18.5802 0.670117 4.466236 1.780665
2005-05-11 08:49:37 51°14.7 2°51.088 18.5954 0.670117 4.466318 1.780665
2005-05-11 08:49:42 51°14.692 2°51.06 18.5902 0.670117 4.466154 1.814375
2005-05-11 08:49:47 51°14.684 2°51.035 18.6034 0.670117 4.466236 1.780665
2005-05-11 08:49:52 51°14.675 2°51.004 18.6153 0.670117 4.466072 1.780665
2005-05-11 08:49:57 51°14.666 2°50.981 18.5891 0.670117 4.466072 1.780665
2005-05-11 08:50:02 51°14.656 2°50.95 18.5646 0.670117 4.466236 1.780665
2005-05-11 08:50:07 51°14.647 2°50.927 18.5993 0.670117 4.466236 1.746956
2005-05-11 08:50:12 51°14.638 2°50.899 18.5881 0.670222 4.466818 1.780665
2005-05-11 08:50:16 51°14.63 2°50.875 18.5857 0.670117 4.466318 1.780665
2005-05-11 08:50:22 51°14.618 2°50.843 18.5991 0.670117 4.466318 1.746956
2005-05-11 08:50:27 51°14.61 2°50.819 18.5835 0.670117 4.466318 1.746956
2005-05-11 08:50:32 51°14.599 2°50.789 18.5831 0.670117 4.4664 1.780665
2005-05-11 08:50:36 51°14.592 2°50.767 18.5966 0.670117 4.466318 1.780665
2005-05-11 08:50:42 51°14.581 2°50.735 18.6049 0.670117 4.466482 1.814375
2005-05-11 08:50:47 51°14.572 2°50.71 18.6212 0.670117 4.466564 1.746956
2005-05-11 08:50:51 51°14.565 2°50.688 18.5927 0.670117 4.466482 1.814375
2005-05-11 08:50:56 51°14.556 2°50.658 18.5788 0.670117 4.466482 1.814375
2005-05-11 08:51:02 51°14.545 2°50.627 18.6269 0.670117 4.466482 1.780665
2005-05-11 08:51:07 51°14.537 2°50.604 18.6073 0.670117 4.466482 1.780665
2005-05-11 08:51:11 51°14.53 2°50.58 18.585 0.670117 4.466482 1.780665
2005-05-11 08:51:16 51°14.521 2°50.555 18.619 0.670117 4.466564 1.746956
2005-05-11 08:51:22 51°14.513 2°50.528 18.6028 0.670117 4.466318 1.780665
2005-05-11 08:51:27 51°14.504 2°50.502 18.6353 0.670117 4.466318 1.780665
2005-05-11 08:51:32 51°14.497 2°50.478 18.6012 0.670117 4.4664 1.780665
2005-05-11 08:51:36 51°14.489 2°50.456 18.6134 0.670117 4.466564 1.780665
2005-05-11 08:51:42 51°14.48 2°50.426 18.5943 0.670117 4.466564 1.814375
2005-05-11 08:51:47 51°14.472 2°50.405 18.6121 0.670117 4.466646 1.746956
2005-05-11 08:51:52 51°14.463 2°50.378 18.6016 0.670117 4.466646 1.780665
2005-05-11 08:51:56 51°14.457 2°50.358 18.5793 0.670117 4.466646 1.780665
2005-05-11 08:52:02 51°14.448 2°50.331 18.6173 0.670117 4.466564 1.780665
2005-05-11 08:52:07 51°14.44 2°50.307 18.6065 0.670117 4.466482 1.780665
2005-05-11 08:52:12 51°14.431 2°50.281 18.6103 0.670117 4.466564 1.780665
2005-05-11 08:52:17 51°14.423 2°50.257 18.6016 0.670013 4.465819 1.780665
2005-05-11 08:52:22 51°14.416 2°50.235 18.6152 0.670117 4.466728 1.780665
2005-05-11 08:52:27 51°14.407 2°50.209 18.558 0.670117 4.466728 1.780665
2005-05-11 08:52:32 51°14.399 2°50.185 18.611 0.670013 4.465901 1.814375
2005-05-11 08:52:36 51°14.393 2°50.165 18.5899 0.670117 4.466728 1.746956
2005-05-11 08:52:42 51°14.384 2°50.137 18.6118 0.670117 4.466728 1.780665
2005-05-11 08:52:47 51°14.377 2°50.115 18.6175 0.670117 4.466646 1.746956
2005-05-11 08:52:51 51°14.37 2°50.094 18.5929 0.670117 4.466646 1.746956
2005-05-11 08:52:56 51°14.362 2°50.07 18.6076 0.670013 4.465983 1.780665
2005-05-11 08:53:02 51°14.352 2°50.041 18.6139 0.670117 4.466646 1.780665
2005-05-11 08:53:07 51°14.345 2°50.019 18.5843 0.670117 4.466646 1.746956
2005-05-11 08:53:10 51°14.339 2°50.003 18.624 0.670117 4.466893 1.780665
2005-05-11 08:53:17 51°14.328 2°49.972 18.577 0.670013 4.466065 1.780665
2005-05-11 08:53:22 51°14.321 2°49.944 18.6456 0.670013 4.465245 1.814375
2005-05-11 08:53:27 51°14.312 2°49.924 18.5562 0.670013 4.465245 1.814375
2005-05-11 08:53:32 51°14.304 2°49.897 18.6136 0.670013 4.465163 1.780665
2005-05-11 08:53:37 51°14.297 2°49.876 18.5834 0.670013 4.46418 1.780665
2005-05-11 08:53:42 51°14.288 2°49.849 18.6052 0.670013 4.464671 1.780665
2005-05-11 08:53:47 51°14.281 2°49.828 18.6208 0.670013 4.465327 1.780665
2005-05-11 08:53:52 51°14.272 2°49.802 18.535 0.670013 4.465819 1.780665
2005-05-11 08:53:57 51°14.264 2°49.78 18.618 0.670013 4.465819 1.780665
2005-05-11 08:54:02 51°14.255 2°49.754 18.5358 0.670013 4.465409 1.780665
2005-05-11 08:54:06 51°14.249 2°49.735 18.634 0.670117 4.46599 1.780665
2005-05-11 08:54:12 51°14.239 2°49.707 18.6039 0.670013 4.464016 1.780665
2005-05-11 08:54:16 51°14.233 2°49.688 18.5961 0.670013 4.463524 1.780665
2005-05-11 08:54:22 51°14.224 2°49.662 18.5836 0.670013 4.464098 1.780665
2005-05-11 08:54:27 51°14.216 2°49.638 18.6163 0.670013 4.464098 1.780665
2005-05-11 08:54:32 51°14.207 2°49.612 18.5974 0.670013 4.464917 1.746956
2005-05-11 08:54:37 51°14.199 2°49.59 18.6137 0.670013 4.465737 1.780665
2005-05-11 08:54:42 51°14.191 2°49.566 18.6132 0.670013 4.465983 1.780665
2005-05-11 08:54:47 51°14.183 2°49.542 18.6231 0.670013 4.465737 1.780665
2005-05-11 08:54:52 51°14.174 2°49.516 18.6252 0.670013 4.465409 1.746956
2005-05-11 08:54:57 51°14.168 2°49.495 18.6147 0.670013 4.465409 1.746956
2005-05-11 08:55:02 51°14.158 2°49.469 18.6049 0.670013 4.464835 1.746956
2005-05-11 08:55:07 51°14.152 2°49.447 18.6242 0.670013 4.464917 1.780665
2005-05-11 08:55:12 51°14.144 2°49.424 18.5751 0.670013 4.465081 1.746956
2005-05-11 08:55:16 51°14.137 2°49.402 18.605 0.670013 4.465573 1.780665
2005-05-11 08:55:22 51°14.127 2°49.374 18.5994 0.670013 4.466147 1.746956
2005-05-11 08:55:27 51°14.121 2°49.353 18.611 0.670013 4.466147 1.746956
2005-05-11 08:55:32 51°14.112 2°49.326 18.5983 0.670013 4.466229 1.746956
2005-05-11 08:55:36 51°14.105 2°49.307 18.6115 0.670013 4.466475 1.780665
2005-05-11 08:55:42 51°14.097 2°49.279 18.6038 0.670013 4.466311 1.746956
2005-05-11 08:55:47 51°14.089 2°49.257 18.5854 0.670013 4.466147 1.746956
2005-05-11 08:55:52 51°14.081 2°49.23 18.6243 0.670013 4.465655 1.746956
2005-05-11 08:55:57 51°14.073 2°49.21 18.6002 0.670013 4.465655 1.746956
2005-05-11 08:56:02 51°14.064 2°49.184 18.6116 0.670013 4.465491 1.780665
2005-05-11 08:56:07 51°14.057 2°49.162 18.6143 0.670013 4.465327 1.746956
2005-05-11 08:56:12 51°14.049 2°49.139 18.5949 0.670013 4.465245 1.746956
2005-05-11 08:56:16 51°14.041 2°49.118 18.6125 0.670013 4.465573 1.780665
2005-05-11 08:56:22 51°14.03 2°49.089 18.5988 0.670013 4.465573 1.780665
2005-05-11 08:56:27 51°14.022 2°49.068 18.5979 0.670013 4.465655 1.746956
2005-05-11 08:56:32 51°14.013 2°49.043 18.6025 0.669908 4.465074 1.780665
2005-05-11 08:56:36 51°14.006 2°49.024 18.6202 0.670013 4.465901 1.780665
2005-05-11 08:56:42 51°13.996 2°48.998 18.6161 0.669908 4.465074 1.746956
2005-05-11 08:56:47 51°13.988 2°48.974 18.6261 0.670013 4.465819 1.746956
2005-05-11 08:56:51 51°13.981 2°48.955 18.5996 0.669908 4.464992 1.746956
2005-05-11 08:56:56 51°13.971 2°48.93 18.618 0.669908 4.464992 1.746956
2005-05-11 08:57:02 51°13.96 2°48.902 18.606 0.669908 4.464746 1.814375
2005-05-11 08:57:07 51°13.953 2°48.88 18.6261 0.670013 4.465819 1.814375
2005-05-11 08:57:12 51°13.943 2°48.855 18.5966 0.669908 4.464828 1.746956
2005-05-11 08:57:17 51°13.935 2°48.831 18.6324 0.669908 4.464992 1.780665
2005-05-11 08:57:22 51°13.925 2°48.808 18.6151 0.669908 4.465074 1.780665
2005-05-11 08:57:27 51°13.918 2°48.786 18.5925 0.669908 4.465074 1.780665
2005-05-11 08:57:32 51°13.908 2°48.761 18.6053 0.669908 4.46491 1.746956
2005-05-11 08:57:36 51°13.901 2°48.741 18.6099 0.669908 4.46491 1.746956
2005-05-11 08:57:42 51°13.89 2°48.714 18.6277 0.669908 4.46491 1.746956
2005-05-11 08:57:47 51°13.883 2°48.692 18.6183 0.669908 4.464828 1.746956
2005-05-11 08:57:52 51°13.874 2°48.669 18.6514 0.669908 4.464992 1.780665
2005-05-11 08:57:56 51°13.866 2°48.648 18.6401 0.669908 4.464992 1.780665
2005-05-11 08:58:02 51°13.855 2°48.619 18.6336 0.669908 4.46491 1.746956
2005-05-11 08:58:07 51°13.847 2°48.598 18.6369 0.669908 4.464828 1.780665
2005-05-11 08:58:12 51°13.838 2°48.572 18.6013 0.669908 4.464828 1.780665
2005-05-11 08:58:16 51°13.83 2°48.554 18.6118 0.669908 4.465238 1.780665
2005-05-11 08:58:22 51°13.822 2°48.528 18.6175 0.669908 4.464828 1.780665
2005-05-11 08:58:27 51°13.813 2°48.507 18.6272 0.669908 4.464828 1.780665
2005-05-11 08:58:31 51°13.808 2°48.49 18.6332 0.669908 4.465238 1.713247
2005-05-11 08:58:37 51°13.801 2°48.466 18.5775 0.669908 4.465074 1.780665
2005-05-11 08:58:40 51°13.797 2°48.453 18.6445 0.669908 4.46491 1.746956
2005-05-11 08:58:47 51°13.793 2°48.428 18.5843 0.669908 4.464746 1.780665
2005-05-11 08:58:52 51°13.79 2°48.409 18.6494 0.669908 4.464746 1.746956
2005-05-11 08:58:56 51°13.788 2°48.396 18.6281 0.669908 4.464746 1.746956
2005-05-11 08:59:02 51°13.786 2°48.377 18.6096 0.669804 4.464082 1.746956
2005-05-11 08:59:07 51°13.786 2°48.363 18.6358 0.669908 4.464992 1.746956
2005-05-11 08:59:12 51°13.785 2°48.348 18.6353 0.669804 4.464328 1.746956
2005-05-11 08:59:17 51°13.785 2°48.333 18.6433 0.669804 4.464492 1.746956
2005-05-11 08:59:22 51°13.784 2°48.319 18.634 0.669804 4.464656 1.713247
2005-05-11 08:59:27 51°13.784 2°48.307 18.6497 0.669804 4.464656 1.713247
2005-05-11 08:59:32 51°13.783 2°48.293 18.6433 0.669804 4.464656 1.780665
2005-05-11 08:59:36 51°13.783 2°48.284 18.6451 0.669908 4.46532 1.746956
2005-05-11 08:59:41 51°13.783 2°48.273 18.6438 0.669908 4.465238 1.746956
2005-05-11 08:59:47 51°13.783 2°48.261 18.6466 0.669804 4.46441 1.780665
2005-05-11 08:59:52 51°13.782 2°48.249 18.624 0.669804 4.46441 1.780665
2005-05-11 08:59:56 51°13.782 2°48.241 18.632 0.669804 4.46441 1.746956
2005-05-11 09:00:02 51°13.782 2°48.231 18.6009 0.669804 4.46441 1.746956
2005-05-11 09:00:07 51°13.782 2°48.224 18.64 0.669804 4.464492 1.746956
2005-05-11 09:00:11 51°13.781 2°48.219 18.6567 0.669804 4.464492 1.780665
2005-05-11 09:00:16 51°13.78 2°48.212 18.6544 0.669804 4.464492 1.713247
2005-05-11 09:00:20 51°13.78 2°48.207 18.6447 0.669804 4.464574 1.746956
2005-05-11 09:00:27 51°13.778 2°48.201 18.6577 0.669804 4.464574 1.746956
2005-05-11 09:00:31 51°13.777 2°48.196 18.6491 0.669804 4.46441 1.746956
2005-05-11 09:00:37 51°13.774 2°48.191 18.6549 0.669804 4.46441 1.746956
2005-05-11 09:00:42 51°13.772 2°48.186 18.658 0.669804 4.464328 1.746956
2005-05-11 09:00:47 51°13.77 2°48.183 18.6588 0.669804 4.46441 1.746956
2005-05-11 09:00:51 51°13.768 2°48.179 18.6631 0.669804 4.46441 1.746956
2005-05-11 09:00:56 51°13.765 2°48.175 18.644 0.669804 4.46441 1.746956
2005-05-11 09:01:02 51°13.763 2°48.17 18.6465 0.669804 4.464574 1.713247
2005-05-11 09:01:07 51°13.761 2°48.166 18.6542 0.6697 4.463911 1.746956
2005-05-11 09:01:12 51°13.759 2°48.162 18.644 0.669804 4.464656 1.746956
2005-05-11 09:01:16 51°13.757 2°48.158 18.658 0.6697 4.463993 1.746956
2005-05-11 09:01:22 51°13.755 2°48.153 18.6533 0.669804 4.464656 1.746956
2005-05-11 09:01:26 51°13.754 2°48.149 18.6427 0.669804 4.464656 1.746956
2005-05-11 09:01:32 51°13.752 2°48.143 18.6528 0.6697 4.463993 1.713247
2005-05-11 09:01:37 51°13.75 2°48.137 18.6448 0.669804 4.464656 1.746956
2005-05-11 09:01:42 51°13.749 2°48.131 18.6507 0.669804 4.464738 1.746956
2005-05-11 09:01:47 51°13.748 2°48.125 18.6558 0.6697 4.464075 1.780665
2005-05-11 09:01:52 51°13.748 2°48.117 18.6439 0.6697 4.463993 1.713247
2005-05-11 09:01:57 51°13.748 2°48.11 18.6408 0.6697 4.463993 1.713247
2005-05-11 09:02:02 51°13.749 2°48.102 18.6509 0.6697 4.463829 1.713247
2005-05-11 09:02:07 51°13.75 2°48.095 18.6321 0.6697 4.463911 1.746956
2005-05-11 09:02:12 51°13.753 2°48.086 18.6099 0.6697 4.463911 1.746956
2005-05-11 09:02:16 51°13.755 2°48.08 18.6319 0.669804 4.464656 1.713247
2005-05-11 09:02:22 51°13.758 2°48.072 18.6217 0.6697 4.463911 1.780665
2005-05-11 09:02:27 51°13.761 2°48.068 18.6838 0.6697 4.463911 1.780665
2005-05-11 09:02:31 51°13.764 2°48.064 18.674 0.6697 4.463993 1.746956
2005-05-11 09:02:36 51°13.767 2°48.06 18.6866 0.6697 4.464157 1.746956
2005-05-11 09:02:42 51°13.769 2°48.054 18.6875 0.6697 4.464157 1.746956
2005-05-11 09:02:47 51°13.77 2°48.051 18.6839 0.6697 4.464239 1.780665
2005-05-11 09:02:51 51°13.771 2°48.048 18.6997 0.6697 4.464239 1.746956
2005-05-11 09:02:56 51°13.772 2°48.044 18.6911 0.6697 4.464239 1.746956
2005-05-11 09:03:02 51°13.773 2°48.04 18.6972 0.6697 4.464321 1.746956
2005-05-11 09:03:07 51°13.773 2°48.037 18.6971 0.6697 4.464157 1.746956
2005-05-11 09:03:12 51°13.773 2°48.034 18.6864 0.6697 4.464239 1.746956
2005-05-11 09:03:16 51°13.773 2°48.031 18.6875 0.669595 4.463575 1.746956
2005-05-11 09:03:22 51°13.773 2°48.027 18.6785 0.6697 4.464321 1.746956
2005-05-11 09:03:27 51°13.773 2°48.024 18.6777 0.6697 4.464321 1.746956
2005-05-11 09:03:31 51°13.773 2°48.021 18.6782 0.6697 4.464403 1.746956
2005-05-11 09:03:37 51°13.772 2°48.018 18.677 0.6697 4.464403 1.780665
2005-05-11 09:03:41 51°13.772 2°48.015 18.6668 0.6697 4.464403 1.746956
2005-05-11 09:03:47 51°13.772 2°48.012 18.6567 0.6697 4.464403 1.713247
2005-05-11 09:03:51 51°13.772 2°48.01 18.6676 0.669595 4.463411 1.746956
2005-05-11 09:03:56 51°13.772 2°48.006 18.6656 0.669595 4.463411 1.746956
2005-05-11 09:04:02 51°13.771 2°48.003 18.6733 0.6697 4.464157 1.746956
2005-05-11 09:04:07 51°13.771 2°48 18.6757 0.6697 4.464157 1.713247
2005-05-11 09:04:12 51°13.77 2°47.997 18.6774 0.6697 4.464239 1.746956
2005-05-11 09:04:18 51°13.77 2°47.994 18.6566 0.669595 4.463411 1.746956
2005-05-11 09:04:22 51°13.769 2°47.991 18.6683 0.669595 4.463411 1.746956
2005-05-11 09:04:27 51°13.769 2°47.988 18.6752 0.669595 4.463411 1.746956
2005-05-11 09:04:31 51°13.768 2°47.986 18.6748 0.669595 4.463493 1.746956
2005-05-11 09:04:36 51°13.768 2°47.983 18.678 0.669595 4.463575 1.780665
2005-05-11 09:04:42 51°13.767 2°47.98 18.6725 0.669595 4.463575 1.713247
2005-05-11 09:04:47 51°13.767 2°47.977 18.6799 0.6697 4.464403 1.746956
2005-05-11 09:04:51 51°13.766 2°47.975 18.6758 0.669595 4.463575 1.746956
2005-05-11 09:04:56 51°13.765 2°47.972 18.6813 0.669595 4.463575 1.746956
2005-05-11 09:05:02 51°13.764 2°47.969 18.6794 0.6697 4.464239 1.746956
2005-05-11 09:05:07 51°13.763 2°47.966 18.6883 0.669595 4.463575 1.713247
2005-05-11 09:05:11 51°13.763 2°47.964 18.6902 0.6697 4.464321 1.713247
2005-05-11 09:05:16 51°13.762 2°47.961 18.6761 0.669595 4.463493 1.746956
2005-05-11 09:05:22 51°13.761 2°47.958 18.6832 0.669595 4.463493 1.746956
2005-05-11 09:05:27 51°13.76 2°47.955 18.6857 0.669595 4.463493 1.746956
2005-05-11 09:05:32 51°13.759 2°47.953 18.6723 0.669595 4.463739 1.746956
2005-05-11 09:05:36 51°13.759 2°47.95 18.6938 0.669595 4.463657 1.713247
2005-05-11 09:05:42 51°13.758 2°47.947 18.6901 0.669595 4.463657 1.713247
2005-05-11 09:05:47 51°13.757 2°47.945 18.6927 0.669595 4.463493 1.746956
2005-05-11 09:05:52 51°13.756 2°47.943 18.6934 0.669595 4.463575 1.746956
2005-05-11 09:05:57 51°13.755 2°47.94 18.6845 0.669595 4.463575 1.746956
2005-05-11 09:06:02 51°13.754 2°47.938 18.6899 0.669595 4.463739 1.713247
2005-05-11 09:06:07 51°13.754 2°47.935 18.7091 0.669595 4.463739 1.746956
2005-05-11 09:06:12 51°13.752 2°47.932 18.687 0.669595 4.463411 1.780665
2005-05-11 09:06:16 51°13.751 2°47.931 18.6916 0.669595 4.463657 1.746956
2005-05-11 09:06:22 51°13.75 2°47.928 18.6913 0.669595 4.463575 1.746956
2005-05-11 09:06:26 51°13.75 2°47.926 18.6835 0.669595 4.463575 1.746956
2005-05-11 09:06:32 51°13.748 2°47.923 18.6825 0.669595 4.463493 1.713247
2005-05-11 09:06:36 51°13.747 2°47.921 18.6989 0.669595 4.463493 1.746956
2005-05-11 09:06:42 51°13.746 2°47.918 18.688 0.669595 4.463493 1.746956
2005-05-11 09:06:47 51°13.745 2°47.916 18.6945 0.669595 4.463575 1.746956
2005-05-11 09:06:51 51°13.744 2°47.914 18.6872 0.669595 4.463575 1.713247
2005-05-11 09:06:56 51°13.743 2°47.912 18.6878 0.669595 4.463575 1.713247
2005-05-11 09:07:02 51°13.741 2°47.909 18.6958 0.669595 4.463575 1.713247
2005-05-11 09:07:07 51°13.74 2°47.907 18.6953 0.669595 4.463657 1.713247
2005-05-11 09:07:12 51°13.739 2°47.905 18.7093 0.669595 4.463657 1.746956
2005-05-11 09:07:16 51°13.738 2°47.903 18.6923 0.669595 4.463657 1.746956
2005-05-11 09:07:22 51°13.736 2°47.901 18.6882 0.669595 4.463575 1.746956
2005-05-11 09:07:27 51°13.735 2°47.899 18.7047 0.669595 4.463575 1.746956
2005-05-11 09:07:32 51°13.734 2°47.897 18.6964 0.669595 4.463657 1.746956
2005-05-11 09:07:37 51°13.733 2°47.895 18.7023 0.669595 4.463739 1.746956
2005-05-11 09:07:42 51°13.731 2°47.893 18.696 0.669595 4.463739 1.780665
2005-05-11 09:07:47 51°13.73 2°47.891 18.6761 0.669595 4.463739 1.746956
2005-05-11 09:07:51 51°13.728 2°47.889 18.686 0.669595 4.463821 1.713247
2005-05-11 09:07:56 51°13.727 2°47.887 18.6848 0.669595 4.463821 1.713247
2005-05-11 09:08:02 51°13.725 2°47.885 18.6734 0.669595 4.463739 1.746956
2005-05-11 09:08:07 51°13.724 2°47.883 18.6798 0.669491 4.462912 1.746956
2005-05-11 09:08:12 51°13.722 2°47.88 18.6939 0.669595 4.463739 1.713247
2005-05-11 09:08:17 51°13.721 2°47.879 18.6829 0.669595 4.463657 1.746956
2005-05-11 09:08:22 51°13.719 2°47.877 18.6956 0.669595 4.463657 1.746956
2005-05-11 09:08:27 51°13.718 2°47.874 18.6881 0.669595 4.463657 1.746956
2005-05-11 09:08:32 51°13.716 2°47.873 18.6862 0.669595 4.463657 1.713247
2005-05-11 09:08:37 51°13.715 2°47.871 18.6907 0.669491 4.462994 1.746956
2005-05-11 09:08:42 51°13.713 2°47.869 18.6983 0.669595 4.463821 1.713247
2005-05-11 09:08:47 51°13.711 2°47.867 18.6944 0.669491 4.462994 1.713247
2005-05-11 09:08:52 51°13.709 2°47.865 18.6975 0.669491 4.462994 1.713247
2005-05-11 09:08:56 51°13.708 2°47.863 18.706 0.669491 4.462994 1.713247
2005-05-11 09:09:02 51°13.706 2°47.861 18.6949 0.669595 4.463903 1.746956
2005-05-11 09:09:07 51°13.704 2°47.86 18.6938 0.669595 4.463985 1.713247
2005-05-11 09:09:11 51°13.703 2°47.858 18.6909 0.669491 4.463076 1.713247
2005-05-11 09:09:17 51°13.701 2°47.856 18.6902 0.669595 4.463821 1.746956
2005-05-11 09:09:22 51°13.699 2°47.853 18.6931 0.669491 4.463076 1.713247
2005-05-11 09:09:27 51°13.697 2°47.852 18.7055 0.669491 4.463076 1.713247
2005-05-11 09:09:32 51°13.696 2°47.85 18.7003 0.669491 4.463076 1.746956
2005-05-11 09:09:36 51°13.694 2°47.848 18.6895 0.669491 4.46324 1.780665
2005-05-11 09:09:42 51°13.692 2°47.846 18.7132 0.669595 4.463985 1.713247
2005-05-11 09:09:47 51°13.69 2°47.845 18.7057 0.669491 4.463158 1.713247
2005-05-11 09:09:52 51°13.689 2°47.843 18.7109 0.669595 4.463985 1.746956
2005-05-11 09:09:57 51°13.687 2°47.842 18.6956 0.669595 4.463985 1.746956
2005-05-11 09:10:02 51°13.686 2°47.841 18.713 0.669491 4.463158 1.713247
2005-05-11 09:10:07 51°13.686 2°47.841 18.697 0.669491 4.463076 1.713247
2005-05-11 09:10:12 51°13.685 2°47.841 18.7072 0.669491 4.46324 1.746956
2005-05-11 09:10:16 51°13.685 2°47.841 18.7117 0.669491 4.463158 1.713247
2005-05-11 09:10:22 51°13.685 2°47.84 18.7067 0.669595 4.463985 1.746956
2005-05-11 09:10:27 51°13.685 2°47.841 18.7256 0.669595 4.463985 1.746956
2005-05-11 09:10:32 51°13.686 2°47.841 18.7105 0.669491 4.46324 1.746956
2005-05-11 09:10:36 51°13.687 2°47.842 18.7184 0.669491 4.463322 1.746956
2005-05-11 09:10:42 51°13.689 2°47.843 18.706 0.669491 4.46324 1.746956
2005-05-11 09:10:47 51°13.691 2°47.844 18.6895 0.669491 4.463158 1.713247
2005-05-11 09:10:52 51°13.694 2°47.846 18.6849 0.669491 4.46324 1.713247
2005-05-11 09:10:56 51°13.696 2°47.847 18.6834 0.669491 4.46324 1.713247
2005-05-11 09:11:02 51°13.701 2°47.85 18.6732 0.669491 4.463158 1.713247
2005-05-11 09:11:07 51°13.704 2°47.851 18.6967 0.669491 4.463322 1.746956
2005-05-11 09:11:11 51°13.708 2°47.853 18.6848 0.669491 4.463322 1.713247
2005-05-11 09:11:16 51°13.712 2°47.855 18.6971 0.669491 4.46324 1.713247
2005-05-11 09:11:22 51°13.717 2°47.857 18.6929 0.669491 4.46324 1.713247
2005-05-11 09:11:27 51°13.721 2°47.86 18.6966 0.669491 4.46324 1.713247
2005-05-11 09:11:32 51°13.725 2°47.862 18.7037 0.669491 4.463158 1.713247
2005-05-11 09:11:36 51°13.728 2°47.864 18.6973 0.669491 4.46324 1.713247
2005-05-11 09:11:42 51°13.732 2°47.867 18.6979 0.669491 4.463404 1.746956
2005-05-11 09:11:47 51°13.735 2°47.869 18.6984 0.669491 4.463322 1.713247
2005-05-11 09:11:52 51°13.738 2°47.872 18.7009 0.669491 4.463404 1.713247
2005-05-11 09:11:56 51°13.74 2°47.875 18.6898 0.669491 4.463404 1.713247
2005-05-11 09:12:02 51°13.743 2°47.879 18.6911 0.669491 4.463322 1.713247
2005-05-11 09:12:07 51°13.746 2°47.883 18.7013 0.669491 4.463322 1.713247
2005-05-11 09:12:12 51°13.748 2°47.888 18.7104 0.669491 4.463322 1.713247
2005-05-11 09:12:16 51°13.75 2°47.892 18.714 0.669491 4.46324 1.746956
2005-05-11 09:12:22 51°13.753 2°47.898 18.7093 0.669491 4.46324 1.746956
2005-05-11 09:12:27 51°13.756 2°47.903 18.693 0.669491 4.46324 1.746956
2005-05-11 09:12:32 51°13.758 2°47.909 18.7039 0.669491 4.463322 1.713247
2005-05-11 09:12:36 51°13.76 2°47.913 18.7 0.669386 4.462576 1.713247
2005-05-11 09:12:42 51°13.763 2°47.918 18.7121 0.669491 4.463404 1.746956
2005-05-11 09:12:47 51°13.765 2°47.923 18.6893 0.669386 4.462576 1.746956
2005-05-11 09:12:52 51°13.768 2°47.929 18.6855 0.669491 4.463322 1.746956
2005-05-11 09:12:57 51°13.77 2°47.934 18.6969 0.669491 4.463322 1.746956
2005-05-11 09:13:02 51°13.772 2°47.939 18.7001 0.669386 4.462494 1.746956
2005-05-11 09:13:07 51°13.775 2°47.943 18.6989 0.669491 4.46324 1.713247
2005-05-11 09:13:12 51°13.777 2°47.948 18.7168 0.669491 4.46324 1.713247
2005-05-11 09:13:16 51°13.779 2°47.951 18.7117 0.669386 4.462494 1.679537
2005-05-11 09:13:22 51°13.782 2°47.956 18.7131 0.669491 4.46324 1.679537
2005-05-11 09:13:27 51°13.785 2°47.961 18.7058 0.669491 4.46324 1.679537
2005-05-11 09:13:32 51°13.787 2°47.965 18.7127 0.669386 4.462494 1.713247
2005-05-11 09:13:37 51°13.79 2°47.97 18.7062 0.669491 4.46324 1.746956
2005-05-11 09:13:42 51°13.793 2°47.975 18.7119 0.669386 4.462412 1.713247
2005-05-11 09:13:47 51°13.795 2°47.978 18.6968 0.669491 4.46324 1.713247
2005-05-11 09:13:52 51°13.798 2°47.983 18.7156 0.669491 4.46324 1.713247
2005-05-11 09:13:56 51°13.8 2°47.987 18.7144 0.669491 4.46324 1.713247
2005-05-11 09:14:02 51°13.803 2°47.992 18.7148 0.669386 4.462412 1.713247
2005-05-11 09:14:07 51°13.805 2°47.996 18.7226 0.669386 4.462412 1.746956
2005-05-11 09:14:11 51°13.807 2°47.999 18.7197 0.669386 4.462412 1.713247
2005-05-11 09:14:17 51°13.81 2°48.005 18.7139 0.669386 4.46233 1.713247
2005-05-11 09:14:22 51°13.812 2°48.01 18.7224 0.669491 4.463158 1.713247
2005-05-11 09:14:27 51°13.814 2°48.014 18.6983 0.669491 4.463158 1.713247
2005-05-11 09:14:32 51°13.817 2°48.019 18.7093 0.669491 4.46324 1.746956
2005-05-11 09:14:37 51°13.818 2°48.024 18.6988 0.669386 4.462412 1.713247
2005-05-11 09:14:42 51°13.821 2°48.029 18.7107 0.669386 4.462494 1.713247
2005-05-11 09:14:47 51°13.823 2°48.033 18.7046 0.669491 4.463322 1.746956
2005-05-11 09:14:51 51°13.824 2°48.036 18.7085 0.669386 4.462576 1.679537
2005-05-11 09:14:57 51°13.826 2°48.043 18.7175 0.669386 4.462576 1.679537
2005-05-11 09:15:02 51°13.828 2°48.048 18.7051 0.669386 4.462658 1.713247
2005-05-11 09:15:07 51°13.83 2°48.054 18.709 0.669491 4.463322 1.746956
2005-05-11 09:15:12 51°13.832 2°48.058 18.7093 0.669386 4.462494 1.713247
2005-05-11 09:15:18 51°13.834 2°48.064 18.7009 0.669386 4.462494 1.746956
2005-05-11 09:15:22 51°13.836 2°48.068 18.7127 0.669386 4.462494 1.746956
2005-05-11 09:15:27 51°13.838 2°48.072 18.7108 0.669386 4.462494 1.746956
2005-05-11 09:15:32 51°13.839 2°48.078 18.7003 0.669386 4.462494 1.713247
2005-05-11 09:15:36 51°13.841 2°48.082 18.6965 0.669386 4.462576 1.713247
2005-05-11 09:15:42 51°13.844 2°48.087 18.7111 0.669386 4.462494 1.713247
2005-05-11 09:15:47 51°13.845 2°48.092 18.7201 0.669386 4.462576 1.713247
2005-05-11 09:15:51 51°13.847 2°48.096 18.716 0.669386 4.462576 1.679537
2005-05-11 09:15:57 51°13.849 2°48.102 18.7126 0.669386 4.462576 1.679537
2005-05-11 09:16:02 51°13.851 2°48.106 18.7144 0.669386 4.462576 1.746956
2005-05-11 09:16:07 51°13.852 2°48.111 18.7107 0.669386 4.462576 1.679537
2005-05-11 09:16:12 51°13.855 2°48.117 18.7077 0.669386 4.462494 1.713247
2005-05-11 09:16:16 51°13.856 2°48.121 18.7128 0.669386 4.462494 1.713247
2005-05-11 09:16:22 51°13.859 2°48.126 18.7389 0.669386 4.462576 1.679537
2005-05-11 09:16:27 51°13.86 2°48.132 18.7082 0.669386 4.462576 1.679537
2005-05-11 09:16:32 51°13.862 2°48.136 18.7031 0.669386 4.462494 1.713247
2005-05-11 09:16:36 51°13.864 2°48.141 18.7072 0.669386 4.462412 1.713247
2005-05-11 09:16:42 51°13.866 2°48.147 18.7207 0.669386 4.462576 1.713247
2005-05-11 09:16:47 51°13.868 2°48.152 18.7235 0.669386 4.462494 1.713247
2005-05-11 09:16:52 51°13.87 2°48.157 18.7213 0.669386 4.462576 1.713247
2005-05-11 09:16:56 51°13.872 2°48.161 18.7343 0.669386 4.462576 1.713247
2005-05-11 09:17:02 51°13.874 2°48.167 18.7202 0.669386 4.462576 1.713247
2005-05-11 09:17:07 51°13.876 2°48.172 18.7239 0.669386 4.462658 1.713247
2005-05-11 09:17:12 51°13.878 2°48.177 18.6865 0.669386 4.462658 1.713247
2005-05-11 09:17:16 51°13.879 2°48.181 18.7209 0.669386 4.46274 1.713247
2005-05-11 09:17:22 51°13.881 2°48.187 18.7146 0.669386 4.46274 1.679537
2005-05-11 09:17:26 51°13.883 2°48.191 18.7183 0.669386 4.46274 1.679537
2005-05-11 09:17:32 51°13.885 2°48.197 18.71 0.669386 4.46274 1.713247
2005-05-11 09:17:37 51°13.887 2°48.201 18.6995 0.669386 4.462658 1.713247
2005-05-11 09:17:42 51°13.889 2°48.207 18.7101 0.669282 4.461913 1.679537
2005-05-11 09:17:47 51°13.891 2°48.212 18.7114 0.669386 4.46274 1.713247
2005-05-11 09:17:52 51°13.893 2°48.217 18.7198 0.669386 4.462658 1.713247
2005-05-11 09:17:57 51°13.895 2°48.221 18.7179 0.669386 4.462658 1.713247
2005-05-11 09:18:02 51°13.897 2°48.227 18.7078 0.669386 4.462576 1.713247
2005-05-11 09:18:07 51°13.898 2°48.232 18.7239 0.669386 4.46274 1.713247
2005-05-11 09:18:11 51°13.899 2°48.236 18.7021 0.669386 4.462658 1.679537
2005-05-11 09:18:16 51°13.901 2°48.24 18.7107 0.669282 4.461831 1.679537
2005-05-11 09:18:22 51°13.902 2°48.246 18.7047 0.669282 4.461749 1.713247
2005-05-11 09:18:27 51°13.904 2°48.252 18.7116 0.669282 4.461749 1.713247
2005-05-11 09:18:32 51°13.905 2°48.257 18.7109 0.669282 4.461749 1.679537
2005-05-11 09:18:37 51°13.907 2°48.262 18.7134 0.669386 4.46274 1.679537
2005-05-11 09:18:42 51°13.908 2°48.268 18.7135 0.669282 4.461831 1.713247
2005-05-11 09:18:47 51°13.91 2°48.273 18.7087 0.669282 4.461995 1.679537
2005-05-11 09:18:51 51°13.911 2°48.277 18.7237 0.669282 4.461913 1.713247
2005-05-11 09:18:56 51°13.912 2°48.283 18.7204 0.669282 4.461913 1.713247
2005-05-11 09:19:02 51°13.914 2°48.29 18.7109 0.669282 4.461913 1.713247
2005-05-11 09:19:07 51°13.915 2°48.294 18.7126 0.669282 4.461913 1.679537
2005-05-11 09:19:12 51°13.917 2°48.3 18.7133 0.669282 4.461913 1.713247
2005-05-11 09:19:16 51°13.918 2°48.305 18.7236 0.669386 4.46274 1.679537
2005-05-11 09:19:22 51°13.919 2°48.311 18.7161 0.669282 4.461995 1.679537
2005-05-11 09:19:27 51°13.92 2°48.317 18.7202 0.669282 4.461995 1.679537
2005-05-11 09:19:32 51°13.922 2°48.322 18.739 0.669386 4.46274 1.713247
2005-05-11 09:19:37 51°13.923 2°48.327 18.7132 0.669282 4.461913 1.679537
2005-05-11 09:19:42 51°13.925 2°48.333 18.7403 0.669282 4.461995 1.713247
2005-05-11 09:19:47 51°13.926 2°48.338 18.7191 0.669282 4.461913 1.713247
2005-05-11 09:19:52 51°13.927 2°48.344 18.7278 0.669386 4.46274 1.713247
2005-05-11 09:19:57 51°13.929 2°48.349 18.7329 0.669386 4.46274 1.713247
2005-05-11 09:20:02 51°13.93 2°48.355 18.731 0.669282 4.461913 1.713247
2005-05-11 09:20:07 51°13.931 2°48.36 18.7319 0.669282 4.461995 1.713247
2005-05-11 09:20:12 51°13.933 2°48.366 18.7415 0.669282 4.461831 1.679537
2005-05-11 09:20:17 51°13.934 2°48.371 18.7393 0.669282 4.461913 1.679537
2005-05-11 09:20:22 51°13.935 2°48.377 18.7379 0.669282 4.461995 1.713247
2005-05-11 09:20:27 51°13.937 2°48.382 18.7366 0.669282 4.461995 1.713247
2005-05-11 09:20:32 51°13.938 2°48.388 18.7355 0.669282 4.461995 1.679537
2005-05-11 09:20:36 51°13.94 2°48.393 18.7579 0.669282 4.461995 1.679537
2005-05-11 09:20:42 51°13.941 2°48.399 18.7325 0.669282 4.461995 1.679537
2005-05-11 09:20:47 51°13.942 2°48.405 18.7464 0.669282 4.461995 1.713247
2005-05-11 09:20:51 51°13.944 2°48.409 18.7538 0.669282 4.461995 1.679537
2005-05-11 09:20:56 51°13.945 2°48.415 18.7465 0.669282 4.461995 1.679537
2005-05-11 09:21:02 51°13.947 2°48.422 18.7505 0.669282 4.461995 1.713247
2005-05-11 09:21:07 51°13.948 2°48.427 18.7469 0.669282 4.461995 1.679537
2005-05-11 09:21:12 51°13.949 2°48.432 18.7417 0.669282 4.462077 1.713247
2005-05-11 09:21:17 51°13.95 2°48.438 18.7315 0.669282 4.461995 1.679537
2005-05-11 09:21:22 51°13.952 2°48.444 18.7581 0.669282 4.461995 1.679537
2005-05-11 09:21:27 51°13.953 2°48.449 18.754 0.669282 4.461995 1.713247
2005-05-11 09:21:32 51°13.955 2°48.455 18.759 0.669282 4.461995 1.713247
2005-05-11 09:21:37 51°13.956 2°48.46 18.7229 0.669282 4.461995 1.713247
2005-05-11 09:21:42 51°13.958 2°48.466 18.7349 0.669282 4.461995 1.679537
2005-05-11 09:21:47 51°13.959 2°48.472 18.719 0.669282 4.462077 1.713247
2005-05-11 09:21:51 51°13.96 2°48.475 18.7262 0.669282 4.462159 1.713247
2005-05-11 09:21:56 51°13.961 2°48.481 18.721 0.669282 4.462159 1.713247
2005-05-11 09:22:02 51°13.963 2°48.488 18.7357 0.669282 4.462077 1.679537
2005-05-11 09:22:07 51°13.964 2°48.493 18.7246 0.669282 4.461913 1.679537
2005-05-11 09:22:12 51°13.965 2°48.499 18.7262 0.669282 4.462077 1.713247
2005-05-11 09:22:16 51°13.966 2°48.503 18.7266 0.669282 4.461995 1.679537
2005-05-11 09:22:22 51°13.968 2°48.509 18.7464 0.669282 4.462077 1.713247
2005-05-11 09:22:27 51°13.97 2°48.515 18.7242 0.669282 4.462077 1.713247
2005-05-11 09:22:32 51°13.971 2°48.52 18.732 0.669282 4.461913 1.679537
2005-05-11 09:22:36 51°13.972 2°48.524 18.7264 0.669386 4.462904 1.679537
2005-05-11 09:22:42 51°13.973 2°48.53 18.7431 0.669282 4.461995 1.713247
2005-05-11 09:22:47 51°13.974 2°48.535 18.7357 0.669282 4.461913 1.679537
2005-05-11 09:22:52 51°13.976 2°48.541 18.7379 0.669282 4.462159 1.679537
2005-05-11 09:22:56 51°13.977 2°48.545 18.7421 0.669282 4.462159 1.679537
2005-05-11 09:23:02 51°13.979 2°48.552 18.7256 0.669282 4.462077 1.713247
2005-05-11 09:23:07 51°13.98 2°48.557 18.7549 0.669282 4.461995 1.679537
2005-05-11 09:23:12 51°13.981 2°48.562 18.7463 0.669282 4.462077 1.679537
2005-05-11 09:23:17 51°13.982 2°48.567 18.7398 0.669177 4.461249 1.713247
2005-05-11 09:23:22 51°13.984 2°48.573 18.7579 0.669282 4.462077 1.679537
2005-05-11 09:23:27 51°13.985 2°48.578 18.7477 0.669282 4.462077 1.679537
2005-05-11 09:23:32 51°13.987 2°48.584 18.7528 0.669282 4.461995 1.679537
2005-05-11 09:23:36 51°13.988 2°48.588 18.7348 0.669282 4.461995 1.713247
2005-05-11 09:23:41 51°13.989 2°48.593 18.7586 0.669282 4.461995 1.679537
2005-05-11 09:23:47 51°13.991 2°48.6 18.7491 0.669282 4.461995 1.713247
2005-05-11 09:23:52 51°13.992 2°48.606 18.756 0.669282 4.461995 1.713247
2005-05-11 09:23:56 51°13.993 2°48.61 18.7414 0.669282 4.461995 1.713247
2005-05-11 09:24:02 51°13.994 2°48.616 18.7599 0.669282 4.461995 1.713247
2005-05-11 09:24:07 51°13.995 2°48.622 18.7397 0.669177 4.461249 1.713247
2005-05-11 09:24:12 51°13.997 2°48.628 18.7593 0.669177 4.461331 1.679537
2005-05-11 09:24:17 51°13.998 2°48.633 18.7525 0.669282 4.462077 1.645828
2005-05-11 09:24:22 51°14 2°48.638 18.7353 0.669177 4.461249 1.679537
2005-05-11 09:24:27 51°14.001 2°48.644 18.7335 0.669177 4.461249 1.679537
2005-05-11 09:24:32 51°14.002 2°48.649 18.7531 0.669282 4.462077 1.713247
2005-05-11 09:24:36 51°14.003 2°48.653 18.753 0.669282 4.461995 1.679537
2005-05-11 09:24:42 51°14.005 2°48.66 18.7334 0.669282 4.462077 1.679537
2005-05-11 09:24:47 51°14.006 2°48.665 18.7493 0.669282 4.462159 1.713247
2005-05-11 09:24:52 51°14.007 2°48.671 18.7599 0.669282 4.462159 1.679537
2005-05-11 09:24:57 51°14.008 2°48.675 18.7504 0.669282 4.462159 1.679537
2005-05-11 09:25:02 51°14.01 2°48.681 18.7574 0.669282 4.462077 1.679537
2005-05-11 09:25:07 51°14.011 2°48.687 18.7597 0.669282 4.462077 1.679537
2005-05-11 09:25:11 51°14.012 2°48.691 18.7668 0.669282 4.462159 1.679537
2005-05-11 09:25:17 51°14.014 2°48.697 18.7506 0.669177 4.461249 1.679537
2005-05-11 09:25:22 51°14.015 2°48.703 18.7412 0.669282 4.462077 1.645828
2005-05-11 09:25:27 51°14.017 2°48.708 18.7437 0.669282 4.462077 1.645828
2005-05-11 09:25:31 51°14.018 2°48.712 18.7462 0.669282 4.462241 1.679537
2005-05-11 09:25:37 51°14.019 2°48.719 18.7544 0.669177 4.461331 1.679537
2005-05-11 09:25:42 51°14.021 2°48.725 18.7425 0.669282 4.462159 1.679537
2005-05-11 09:25:47 51°14.022 2°48.73 18.7578 0.669282 4.462077 1.679537
2005-05-11 09:25:52 51°14.024 2°48.736 18.7616 0.669282 4.462077 1.679537
2005-05-11 09:25:57 51°14.025 2°48.741 18.7673 0.669282 4.462077 1.679537
2005-05-11 09:26:02 51°14.026 2°48.747 18.763 0.669282 4.462159 1.679537
2005-05-11 09:26:07 51°14.028 2°48.752 18.7738 0.669177 4.461331 1.645828
2005-05-11 09:26:12 51°14.029 2°48.758 18.7645 0.669282 4.462159 1.679537
2005-05-11 09:26:17 51°14.03 2°48.763 18.7856 0.669177 4.461413 1.679537
2005-05-11 09:26:22 51°14.032 2°48.768 18.768 0.669177 4.461413 1.679537
2005-05-11 09:26:27 51°14.033 2°48.774 18.751 0.669177 4.461413 1.679537
2005-05-11 09:26:31 51°14.034 2°48.778 18.7667 0.669282 4.462241 1.645828
2005-05-11 09:26:37 51°14.036 2°48.786 18.7708 0.669177 4.461413 1.679537
2005-05-11 09:26:42 51°14.037 2°48.792 18.7527 0.669177 4.461495 1.679537
2005-05-11 09:26:46 51°14.039 2°48.796 18.7621 0.669282 4.462159 1.679537
2005-05-11 09:26:52 51°14.04 2°48.803 18.7723 0.669177 4.461495 1.713247
2005-05-11 09:26:57 51°14.041 2°48.809 18.7547 0.669177 4.461495 1.713247
2005-05-11 09:27:02 51°14.043 2°48.814 18.7603 0.669282 4.462077 1.713247
2005-05-11 09:27:07 51°14.044 2°48.82 18.7631 0.669177 4.461495 1.713247
2005-05-11 09:27:11 51°14.045 2°48.824 18.7816 0.669282 4.462241 1.679537
2005-05-11 09:27:17 51°14.046 2°48.83 18.742 0.669282 4.462323 1.645828
2005-05-11 09:27:22 51°14.047 2°48.837 18.7415 0.669282 4.462241 1.679537
2005-05-11 09:27:27 51°14.048 2°48.842 18.7445 0.669282 4.462241 1.679537
2005-05-11 09:27:31 51°14.049 2°48.846 18.7662 0.669177 4.461413 1.645828
2005-05-11 09:27:36 51°14.051 2°48.852 18.7586 0.669177 4.461413 1.645828
2005-05-11 09:27:42 51°14.052 2°48.859 18.7487 0.669177 4.461495 1.679537
2005-05-11 09:27:47 51°14.053 2°48.865 18.7427 0.669177 4.461495 1.645828
2005-05-11 09:27:52 51°14.055 2°48.87 18.7346 0.669282 4.462323 1.645828
2005-05-11 09:27:56 51°14.055 2°48.874 18.7386 0.669282 4.462323 1.645828
2005-05-11 09:28:02 51°14.057 2°48.881 18.7492 0.669177 4.461413 1.679537
2005-05-11 09:28:07 51°14.058 2°48.887 18.7516 0.669177 4.461331 1.645828
2005-05-11 09:28:12 51°14.06 2°48.89 18.7572 0.669282 4.462159 1.713247
2005-05-11 09:28:16 51°14.061 2°48.896 18.7382 0.669177 4.461249 1.679537
2005-05-11 09:28:23 51°14.062 2°48.903 18.7554 0.669177 4.461413 1.679537
2005-05-11 09:28:27 51°14.064 2°48.907 18.7712 0.669177 4.461413 1.679537
2005-05-11 09:28:31 51°14.065 2°48.912 18.7574 0.669177 4.461495 1.645828
2005-05-11 09:28:36 51°14.066 2°48.918 18.7514 0.669177 4.461495 1.679537
2005-05-11 09:28:42 51°14.068 2°48.924 18.7618 0.669282 4.462241 1.679537
2005-05-11 09:28:47 51°14.069 2°48.929 18.7591 0.669177 4.461495 1.713247
2005-05-11 09:28:51 51°14.071 2°48.933 18.7492 0.669177 4.461413 1.645828
2005-05-11 09:28:56 51°14.072 2°48.939 18.7733 0.669177 4.461413 1.645828
2005-05-11 09:29:02 51°14.074 2°48.946 18.7631 0.669177 4.461495 1.679537
2005-05-11 09:29:07 51°14.075 2°48.951 18.7709 0.669177 4.461495 1.679537
2005-05-11 09:29:11 51°14.077 2°48.956 18.7853 0.669177 4.461577 1.645828
2005-05-11 09:29:16 51°14.078 2°48.961 18.7631 0.669177 4.461413 1.679537
2005-05-11 09:29:22 51°14.08 2°48.968 18.7581 0.669177 4.461413 1.679537
2005-05-11 09:29:27 51°14.081 2°48.973 18.7681 0.669177 4.461413 1.679537
2005-05-11 09:29:32 51°14.083 2°48.978 18.7505 0.669177 4.461413 1.645828
2005-05-11 09:29:37 51°14.085 2°48.984 18.7777 0.669177 4.461495 1.645828
2005-05-11 09:29:42 51°14.086 2°48.989 18.7656 0.669177 4.461495 1.679537
2005-05-11 09:29:47 51°14.087 2°48.995 18.7668 0.669177 4.461577 1.679537
2005-05-11 09:29:52 51°14.089 2°49.001 18.7742 0.669177 4.461741 1.679537
2005-05-11 09:29:56 51°14.09 2°49.005 18.7596 0.669177 4.461741 1.679537
2005-05-11 09:30:02 51°14.092 2°49.012 18.7784 0.669177 4.461495 1.645828
2005-05-11 09:30:07 51°14.093 2°49.017 18.7629 0.669177 4.461659 1.679537
2005-05-11 09:30:12 51°14.094 2°49.023 18.7744 0.669177 4.461659 1.679537
2005-05-11 09:30:16 51°14.095 2°49.027 18.7764 0.669177 4.461577 1.645828
2005-05-11 09:30:22 51°14.097 2°49.034 18.7835 0.669177 4.461577 1.645828
2005-05-11 09:30:27 51°14.099 2°49.038 18.7772 0.669177 4.461577 1.645828
2005-05-11 09:30:32 51°14.1 2°49.044 18.7766 0.669177 4.461741 1.679537
2005-05-11 09:30:37 51°14.102 2°49.049 18.793 0.669177 4.461659 1.679537
2005-05-11 09:30:42 51°14.103 2°49.055 18.7872 0.669177 4.461659 1.679537
2005-05-11 09:30:47 51°14.104 2°49.06 18.7867 0.669177 4.461577 1.645828
2005-05-11 09:30:52 51°14.106 2°49.066 18.7925 0.669177 4.461577 1.679537
2005-05-11 09:30:56 51°14.107 2°49.071 18.7739 0.669177 4.461577 1.679537
2005-05-11 09:31:02 51°14.108 2°49.077 18.7704 0.669177 4.461659 1.679537
2005-05-11 09:31:07 51°14.109 2°49.082 18.7631 0.669177 4.461577 1.679537
2005-05-11 09:31:12 51°14.111 2°49.088 18.786 0.669177 4.461577 1.679537
2005-05-11 09:31:16 51°14.112 2°49.093 18.7709 0.669177 4.461741 1.679537
2005-05-11 09:31:22 51°14.113 2°49.099 18.772 0.669073 4.46075 1.679537
2005-05-11 09:31:27 51°14.115 2°49.104 18.7665 0.669073 4.46075 1.679537
2005-05-11 09:31:32 51°14.116 2°49.11 18.7832 0.669177 4.461659 1.679537
2005-05-11 09:31:37 51°14.118 2°49.115 18.7712 0.669177 4.461495 1.645828
2005-05-11 09:31:42 51°14.118 2°49.12 18.7729 0.669177 4.461577 1.679537
2005-05-11 09:31:47 51°14.12 2°49.125 18.7864 0.669177 4.461659 1.679537
2005-05-11 09:31:52 51°14.121 2°49.13 18.8091 0.669177 4.461741 1.645828
2005-05-11 09:31:57 51°14.123 2°49.136 18.7911 0.669177 4.461741 1.645828
2005-05-11 09:32:02 51°14.124 2°49.142 18.8044 0.669177 4.461741 1.645828
2005-05-11 09:32:07 51°14.125 2°49.146 18.8002 0.669177 4.461577 1.679537
2005-05-11 09:32:12 51°14.127 2°49.152 18.7778 0.669177 4.461659 1.645828
2005-05-11 09:32:17 51°14.128 2°49.157 18.7963 0.669177 4.461659 1.679537
2005-05-11 09:32:22 51°14.129 2°49.163 18.8126 0.669073 4.460832 1.679537
2005-05-11 09:32:27 51°14.13 2°49.167 18.7912 0.669073 4.460832 1.679537
2005-05-11 09:32:32 51°14.132 2°49.174 18.7672 0.669177 4.461741 1.679537
2005-05-11 09:32:36 51°14.133 2°49.178 18.7822 0.669073 4.460914 1.679537
2005-05-11 09:32:42 51°14.134 2°49.185 18.7878 0.669177 4.461659 1.645828
2005-05-11 09:32:47 51°14.136 2°49.189 18.8026 0.669177 4.461741 1.645828
2005-05-11 09:32:52 51°14.137 2°49.195 18.7865 0.669177 4.461577 1.645828
2005-05-11 09:32:57 51°14.138 2°49.2 18.7838 0.669177 4.461577 1.645828
2005-05-11 09:33:02 51°14.14 2°49.206 18.7915 0.669177 4.461741 1.645828
2005-05-11 09:33:07 51°14.141 2°49.211 18.7899 0.669177 4.461659 1.679537
2005-05-11 09:33:12 51°14.142 2°49.217 18.7942 0.669177 4.461659 1.645828
2005-05-11 09:33:16 51°14.144 2°49.221 18.7983 0.669177 4.461741 1.679537
2005-05-11 09:33:22 51°14.145 2°49.227 18.8122 0.669177 4.461659 1.679537
2005-05-11 09:33:27 51°14.147 2°49.232 18.7955 0.669177 4.461659 1.679537
2005-05-11 09:33:32 51°14.148 2°49.239 18.8131 0.669073 4.460995 1.645828
2005-05-11 09:33:36 51°14.15 2°49.243 18.8095 0.669177 4.461659 1.645828
2005-05-11 09:33:42 51°14.151 2°49.249 18.8158 0.669073 4.460914 1.679537
2005-05-11 09:33:47 51°14.153 2°49.255 18.793 0.669073 4.460995 1.713247
2005-05-11 09:33:52 51°14.154 2°49.261 18.7953 0.669177 4.461659 1.679537
2005-05-11 09:33:57 51°14.155 2°49.265 18.8058 0.669177 4.461659 1.679537
2005-05-11 09:34:02 51°14.157 2°49.271 18.8034 0.669177 4.461741 1.645828
2005-05-11 09:34:07 51°14.157 2°49.277 18.7944 0.669073 4.460914 1.679537
2005-05-11 09:34:12 51°14.159 2°49.282 18.8065 0.669073 4.460995 1.679537
2005-05-11 09:34:16 51°14.16 2°49.287 18.8095 0.669177 4.461741 1.679537
2005-05-11 09:34:22 51°14.162 2°49.293 18.8173 0.669073 4.460995 1.645828
2005-05-11 09:34:27 51°14.163 2°49.298 18.8269 0.669073 4.460995 1.645828
2005-05-11 09:34:32 51°14.164 2°49.305 18.7982 0.669177 4.461741 1.645828
2005-05-11 09:34:36 51°14.165 2°49.309 18.7956 0.669073 4.460914 1.679537
2005-05-11 09:34:42 51°14.167 2°49.316 18.8017 0.669073 4.460914 1.679537
2005-05-11 09:34:47 51°14.168 2°49.322 18.8107 0.669177 4.461823 1.645828
2005-05-11 09:34:52 51°14.169 2°49.327 18.8057 0.669073 4.461077 1.645828
2005-05-11 09:34:56 51°14.17 2°49.332 18.8172 0.669073 4.461077 1.645828
2005-05-11 09:35:02 51°14.172 2°49.339 18.8277 0.669073 4.460995 1.645828
2005-05-11 09:35:07 51°14.173 2°49.344 18.81 0.669073 4.461077 1.679537
2005-05-11 09:35:12 51°14.175 2°49.35 18.8087 0.669073 4.461159 1.679537
2005-05-11 09:35:17 51°14.176 2°49.355 18.8038 0.669177 4.461823 1.645828
2005-05-11 09:35:22 51°14.177 2°49.361 18.8305 0.669073 4.461077 1.679537
2005-05-11 09:35:27 51°14.178 2°49.366 18.8107 0.669073 4.461077 1.679537
2005-05-11 09:35:32 51°14.18 2°49.372 18.8277 0.669177 4.461905 1.679537
2005-05-11 09:35:36 51°14.182 2°49.377 18.8207 0.669073 4.460995 1.679537
2005-05-11 09:35:42 51°14.183 2°49.383 18.808 0.669073 4.461159 1.679537
2005-05-11 09:35:47 51°14.184 2°49.389 18.8193 0.669073 4.461077 1.679537
2005-05-11 09:35:52 51°14.186 2°49.394 18.8128 0.669073 4.461159 1.679537
2005-05-11 09:35:57 51°14.188 2°49.4 18.8292 0.669073 4.461159 1.679537
2005-05-11 09:36:02 51°14.189 2°49.406 18.8167 0.669073 4.461077 1.679537
2005-05-11 09:36:07 51°14.19 2°49.411 18.8291 0.669073 4.461159 1.645828
2005-05-11 09:36:12 51°14.192 2°49.417 18.8144 0.669073 4.461159 1.645828
2005-05-11 09:36:16 51°14.193 2°49.422 18.8293 0.669073 4.461077 1.645828
2005-05-11 09:36:22 51°14.195 2°49.428 18.8205 0.669073 4.461241 1.679537
2005-05-11 09:36:27 51°14.196 2°49.433 18.8261 0.669073 4.461241 1.679537
2005-05-11 09:36:31 51°14.197 2°49.438 18.8195 0.669073 4.461159 1.679537
2005-05-11 09:36:37 51°14.199 2°49.444 18.8351 0.669073 4.461159 1.645828
2005-05-11 09:36:42 51°14.201 2°49.45 18.8094 0.669073 4.461159 1.679537
2005-05-11 09:36:47 51°14.202 2°49.456 18.8428 0.669073 4.461159 1.645828
2005-05-11 09:36:52 51°14.204 2°49.461 18.8311 0.669073 4.461159 1.645828
2005-05-11 09:36:56 51°14.205 2°49.466 18.8211 0.669073 4.461159 1.645828
2005-05-11 09:37:02 51°14.207 2°49.473 18.8481 0.669073 4.461241 1.645828
2005-05-11 09:37:07 51°14.208 2°49.478 18.8445 0.669073 4.461159 1.645828
2005-05-11 09:37:12 51°14.21 2°49.484 18.8457 0.669073 4.461323 1.645828
2005-05-11 09:37:16 51°14.211 2°49.489 18.8186 0.669073 4.461241 1.679537
2005-05-11 09:37:22 51°14.213 2°49.495 18.8387 0.669073 4.461241 1.645828
2005-05-11 09:37:27 51°14.215 2°49.501 18.8419 0.669073 4.461241 1.645828
2005-05-11 09:37:32 51°14.216 2°49.507 18.8507 0.669073 4.461323 1.679537
2005-05-11 09:37:36 51°14.217 2°49.512 18.8354 0.669073 4.461323 1.645828
2005-05-11 09:37:42 51°14.22 2°49.519 18.8402 0.669073 4.461323 1.645828
2005-05-11 09:37:47 51°14.221 2°49.524 18.8347 0.669073 4.461405 1.679537
2005-05-11 09:37:52 51°14.223 2°49.53 18.861 0.669073 4.461323 1.645828
2005-05-11 09:37:57 51°14.224 2°49.536 18.8376 0.669073 4.461323 1.645828
2005-05-11 09:38:02 51°14.225 2°49.541 18.8383 0.669073 4.461323 1.679537
2005-05-11 09:38:07 51°14.227 2°49.548 18.8203 0.669073 4.461241 1.645828
2005-05-11 09:38:12 51°14.228 2°49.553 18.8537 0.669073 4.461487 1.645828
2005-05-11 09:38:17 51°14.229 2°49.559 18.8303 0.669073 4.461487 1.645828
2005-05-11 09:38:22 51°14.231 2°49.565 18.8582 0.669073 4.461405 1.645828
2005-05-11 09:38:27 51°14.232 2°49.57 18.8535 0.669073 4.461405 1.645828
2005-05-11 09:38:32 51°14.234 2°49.576 18.856 0.669073 4.461487 1.645828
2005-05-11 09:38:36 51°14.235 2°49.58 18.8383 0.669073 4.461405 1.645828
2005-05-11 09:38:42 51°14.237 2°49.587 18.8463 0.669073 4.461405 1.645828
2005-05-11 09:38:47 51°14.238 2°49.593 18.8467 0.669073 4.461487 1.679537
2005-05-11 09:38:52 51°14.24 2°49.599 18.8464 0.669073 4.461323 1.645828
2005-05-11 09:38:56 51°14.241 2°49.603 18.8527 0.669073 4.461323 1.645828
2005-05-11 09:39:02 51°14.243 2°49.609 18.8568 0.669073 4.461323 1.679537
2005-05-11 09:39:07 51°14.244 2°49.615 18.8528 0.669073 4.461405 1.645828
2005-05-11 09:39:12 51°14.246 2°49.621 18.8712 0.669073 4.461405 1.612118
2005-05-11 09:39:17 51°14.247 2°49.626 18.8591 0.669073 4.461405 1.612118
2005-05-11 09:39:22 51°14.249 2°49.632 18.8547 0.669073 4.461405 1.645828
2005-05-11 09:39:27 51°14.25 2°49.638 18.8417 0.669073 4.461405 1.645828
2005-05-11 09:39:32 51°14.252 2°49.643 18.8574 0.669073 4.461323 1.645828
2005-05-11 09:39:36 51°14.253 2°49.648 18.8461 0.669073 4.461405 1.645828
2005-05-11 09:39:42 51°14.255 2°49.654 18.8595 0.669073 4.461487 1.679537
2005-05-11 09:39:47 51°14.256 2°49.659 18.8525 0.669073 4.461569 1.645828
2005-05-11 09:39:52 51°14.257 2°49.664 18.8698 0.669073 4.461569 1.679537
2005-05-11 09:39:57 51°14.259 2°49.669 18.8469 0.669073 4.461569 1.679537
2005-05-11 09:40:02 51°14.26 2°49.674 18.8672 0.669073 4.461569 1.645828
2005-05-11 09:40:07 51°14.261 2°49.679 18.8713 0.669073 4.461569 1.645828